<?xml version="1.0" encoding="UTF-8" standalone="no" ?>
<gpx xmlns="http://www.topografix.com/GPX/1/1" xmlns:xsi="http://www.w3.org/2001/XMLSchema-instance" xsi:schemaLocation="http://www.topografix.com/GPX/1/1 http://www.topografix.com/GPX/1/1/gpx.xsd" version="1.1" creator="VisuGPX - https://www.visugpx.com">
  <metadata>
    <name>petit tour tranquile à boucaune</name>
    <desc><![CDATA[tour dans la foret de boucaune, un peu hasardeux car c\'est une première]]></desc>
  </metadata>
  <trk>
    <name><![CDATA[Lévignac Sans catégorie]]></name>
    <trkseg>
      <trkpt lat="43.6644" lon="1.22738">
        <ele>194</ele>
        <time>2015-08-19T16:42:22.000Z</time>
      </trkpt>
      <trkpt lat="43.66445" lon="1.22735">
        <ele>194</ele>
        <time>2015-08-19T16:42:23.000Z</time>
      </trkpt>
      <trkpt lat="43.6644" lon="1.22743">
        <ele>194.19999694824</ele>
        <time>2015-08-19T16:42:30.000Z</time>
      </trkpt>
      <trkpt lat="43.6644" lon="1.22785">
        <ele>194.60000610352</ele>
        <time>2015-08-19T16:42:45.000Z</time>
      </trkpt>
      <trkpt lat="43.66423" lon="1.22823">
        <ele>195</ele>
        <time>2015-08-19T16:42:57.000Z</time>
      </trkpt>
      <trkpt lat="43.66409" lon="1.22873">
        <ele>195.39999389648</ele>
        <time>2015-08-19T16:43:12.000Z</time>
      </trkpt>
      <trkpt lat="43.66398" lon="1.22892">
        <ele>196</ele>
        <time>2015-08-19T16:43:18.000Z</time>
      </trkpt>
      <trkpt lat="43.66388" lon="1.2294">
        <ele>195.39999389648</ele>
        <time>2015-08-19T16:43:32.000Z</time>
      </trkpt>
      <trkpt lat="43.66385" lon="1.22947">
        <ele>195.19999694824</ele>
        <time>2015-08-19T16:43:34.000Z</time>
      </trkpt>
      <trkpt lat="43.66373" lon="1.22961">
        <ele>194.60000610352</ele>
        <time>2015-08-19T16:43:39.000Z</time>
      </trkpt>
      <trkpt lat="43.6634" lon="1.22984">
        <ele>194.19999694824</ele>
        <time>2015-08-19T16:43:53.000Z</time>
      </trkpt>
      <trkpt lat="43.66305" lon="1.22993">
        <ele>194.60000610352</ele>
        <time>2015-08-19T16:44:06.000Z</time>
      </trkpt>
      <trkpt lat="43.66284" lon="1.22981">
        <ele>194.80000305176</ele>
        <time>2015-08-19T16:44:16.000Z</time>
      </trkpt>
      <trkpt lat="43.66259" lon="1.22967">
        <ele>194.80000305176</ele>
        <time>2015-08-19T16:44:29.000Z</time>
      </trkpt>
      <trkpt lat="43.66256" lon="1.22963">
        <ele>194.80000305176</ele>
        <time>2015-08-19T16:44:40.000Z</time>
      </trkpt>
      <trkpt lat="43.66251" lon="1.22962">
        <ele>194.80000305176</ele>
        <time>2015-08-19T16:45:16.000Z</time>
      </trkpt>
      <trkpt lat="43.6624" lon="1.22959">
        <ele>194.60000610352</ele>
        <time>2015-08-19T16:45:21.000Z</time>
      </trkpt>
      <trkpt lat="43.66206" lon="1.22971">
        <ele>194.19999694824</ele>
        <time>2015-08-19T16:45:34.000Z</time>
      </trkpt>
      <trkpt lat="43.6618" lon="1.22999">
        <ele>194</ele>
        <time>2015-08-19T16:45:45.000Z</time>
      </trkpt>
      <trkpt lat="43.66148" lon="1.23008">
        <ele>194.39999389648</ele>
        <time>2015-08-19T16:45:55.000Z</time>
      </trkpt>
      <trkpt lat="43.6614" lon="1.23011">
        <ele>194.60000610352</ele>
        <time>2015-08-19T16:45:58.000Z</time>
      </trkpt>
      <trkpt lat="43.66133" lon="1.22999">
        <ele>194.60000610352</ele>
        <time>2015-08-19T16:46:02.000Z</time>
      </trkpt>
      <trkpt lat="43.66116" lon="1.22957">
        <ele>194.80000305176</ele>
        <time>2015-08-19T16:46:15.000Z</time>
      </trkpt>
      <trkpt lat="43.66092" lon="1.22913">
        <ele>195</ele>
        <time>2015-08-19T16:46:30.000Z</time>
      </trkpt>
      <trkpt lat="43.66057" lon="1.22886">
        <ele>195.19999694824</ele>
        <time>2015-08-19T16:46:45.000Z</time>
      </trkpt>
      <trkpt lat="43.66054" lon="1.22873">
        <ele>195.19999694824</ele>
        <time>2015-08-19T16:46:49.000Z</time>
      </trkpt>
      <trkpt lat="43.66027" lon="1.22862">
        <ele>195.39999389648</ele>
        <time>2015-08-19T16:47:00.000Z</time>
      </trkpt>
      <trkpt lat="43.65988" lon="1.22864">
        <ele>195.39999389648</ele>
        <time>2015-08-19T16:47:14.000Z</time>
      </trkpt>
      <trkpt lat="43.65952" lon="1.22878">
        <ele>195.80000305176</ele>
        <time>2015-08-19T16:47:27.000Z</time>
      </trkpt>
      <trkpt lat="43.6595" lon="1.22878">
        <ele>195.80000305176</ele>
        <time>2015-08-19T16:47:28.000Z</time>
      </trkpt>
      <trkpt lat="43.65921" lon="1.22879">
        <ele>195.39999389648</ele>
        <time>2015-08-19T16:47:40.000Z</time>
      </trkpt>
      <trkpt lat="43.65883" lon="1.22885">
        <ele>194</ele>
        <time>2015-08-19T16:47:54.000Z</time>
      </trkpt>
      <trkpt lat="43.65839" lon="1.22874">
        <ele>193.19999694824</ele>
        <time>2015-08-19T16:48:09.000Z</time>
      </trkpt>
      <trkpt lat="43.65826" lon="1.22862">
        <ele>193.39999389648</ele>
        <time>2015-08-19T16:48:15.000Z</time>
      </trkpt>
      <trkpt lat="43.65812" lon="1.22865">
        <ele>193.60000610352</ele>
        <time>2015-08-19T16:48:20.000Z</time>
      </trkpt>
      <trkpt lat="43.65808" lon="1.22865">
        <ele>193.80000305176</ele>
        <time>2015-08-19T16:48:31.000Z</time>
      </trkpt>
      <trkpt lat="43.658" lon="1.22856">
        <ele>193.80000305176</ele>
        <time>2015-08-19T16:48:32.000Z</time>
      </trkpt>
      <trkpt lat="43.658" lon="1.22856">
        <ele>193.80000305176</ele>
        <time>2015-08-19T16:48:38.000Z</time>
      </trkpt>
      <trkpt lat="43.65791" lon="1.22859">
        <ele>194</ele>
        <time>2015-08-19T16:48:47.000Z</time>
      </trkpt>
      <trkpt lat="43.65768" lon="1.22885">
        <ele>194.80000305176</ele>
        <time>2015-08-19T16:48:59.000Z</time>
      </trkpt>
      <trkpt lat="43.65742" lon="1.22889">
        <ele>194.60000610352</ele>
        <time>2015-08-19T16:49:11.000Z</time>
      </trkpt>
      <trkpt lat="43.65721" lon="1.2289">
        <ele>194.80000305176</ele>
        <time>2015-08-19T16:49:20.000Z</time>
      </trkpt>
      <trkpt lat="43.65691" lon="1.22916">
        <ele>195</ele>
        <time>2015-08-19T16:49:34.000Z</time>
      </trkpt>
      <trkpt lat="43.65677" lon="1.22946">
        <ele>195</ele>
        <time>2015-08-19T16:49:45.000Z</time>
      </trkpt>
      <trkpt lat="43.65679" lon="1.22997">
        <ele>195.60000610352</ele>
        <time>2015-08-19T16:50:00.000Z</time>
      </trkpt>
      <trkpt lat="43.65664" lon="1.23035">
        <ele>196.60000610352</ele>
        <time>2015-08-19T16:50:12.000Z</time>
      </trkpt>
      <trkpt lat="43.65657" lon="1.23044">
        <ele>196.60000610352</ele>
        <time>2015-08-19T16:50:16.000Z</time>
      </trkpt>
      <trkpt lat="43.65652" lon="1.2306">
        <ele>196.60000610352</ele>
        <time>2015-08-19T16:50:22.000Z</time>
      </trkpt>
      <trkpt lat="43.65624" lon="1.23099">
        <ele>197</ele>
        <time>2015-08-19T16:50:36.000Z</time>
      </trkpt>
      <trkpt lat="43.65602" lon="1.23127">
        <ele>196.80000305176</ele>
        <time>2015-08-19T16:50:46.000Z</time>
      </trkpt>
      <trkpt lat="43.65596" lon="1.23138">
        <ele>197</ele>
        <time>2015-08-19T16:50:50.000Z</time>
      </trkpt>
      <trkpt lat="43.6559" lon="1.23144">
        <ele>197</ele>
        <time>2015-08-19T16:50:55.000Z</time>
      </trkpt>
      <trkpt lat="43.65597" lon="1.23131">
        <ele>196.80000305176</ele>
        <time>2015-08-19T16:51:01.000Z</time>
      </trkpt>
      <trkpt lat="43.65593" lon="1.23115">
        <ele>196.80000305176</ele>
        <time>2015-08-19T16:51:08.000Z</time>
      </trkpt>
      <trkpt lat="43.65592" lon="1.23117">
        <ele>196.80000305176</ele>
        <time>2015-08-19T16:51:12.000Z</time>
      </trkpt>
      <trkpt lat="43.6559" lon="1.23108">
        <ele>196.60000610352</ele>
        <time>2015-08-19T16:51:16.000Z</time>
      </trkpt>
      <trkpt lat="43.65575" lon="1.23062">
        <ele>196.39999389648</ele>
        <time>2015-08-19T16:51:29.000Z</time>
      </trkpt>
      <trkpt lat="43.65557" lon="1.23015">
        <ele>196.60000610352</ele>
        <time>2015-08-19T16:51:42.000Z</time>
      </trkpt>
      <trkpt lat="43.65538" lon="1.22973">
        <ele>196.60000610352</ele>
        <time>2015-08-19T16:51:56.000Z</time>
      </trkpt>
      <trkpt lat="43.65522" lon="1.22937">
        <ele>196</ele>
        <time>2015-08-19T16:52:09.000Z</time>
      </trkpt>
      <trkpt lat="43.65505" lon="1.22907">
        <ele>195.80000305176</ele>
        <time>2015-08-19T16:52:21.000Z</time>
      </trkpt>
      <trkpt lat="43.65492" lon="1.22878">
        <ele>196.19999694824</ele>
        <time>2015-08-19T16:52:32.000Z</time>
      </trkpt>
      <trkpt lat="43.65474" lon="1.22832">
        <ele>197.19999694824</ele>
        <time>2015-08-19T16:52:49.000Z</time>
      </trkpt>
      <trkpt lat="43.65457" lon="1.22789">
        <ele>198</ele>
        <time>2015-08-19T16:53:03.000Z</time>
      </trkpt>
      <trkpt lat="43.65441" lon="1.22754">
        <ele>198.80000305176</ele>
        <time>2015-08-19T16:53:16.000Z</time>
      </trkpt>
      <trkpt lat="43.65424" lon="1.22719">
        <ele>199.80000305176</ele>
        <time>2015-08-19T16:53:30.000Z</time>
      </trkpt>
      <trkpt lat="43.65403" lon="1.22669">
        <ele>201</ele>
        <time>2015-08-19T16:53:44.000Z</time>
      </trkpt>
      <trkpt lat="43.65384" lon="1.22625">
        <ele>201.19999694824</ele>
        <time>2015-08-19T16:53:58.000Z</time>
      </trkpt>
      <trkpt lat="43.65367" lon="1.22586">
        <ele>200.19999694824</ele>
        <time>2015-08-19T16:54:10.000Z</time>
      </trkpt>
      <trkpt lat="43.65345" lon="1.22535">
        <ele>199.39999389648</ele>
        <time>2015-08-19T16:54:25.000Z</time>
      </trkpt>
      <trkpt lat="43.65325" lon="1.22495">
        <ele>198.80000305176</ele>
        <time>2015-08-19T16:54:39.000Z</time>
      </trkpt>
      <trkpt lat="43.65307" lon="1.2246">
        <ele>199</ele>
        <time>2015-08-19T16:54:53.000Z</time>
      </trkpt>
      <trkpt lat="43.65287" lon="1.22417">
        <ele>200.19999694824</ele>
        <time>2015-08-19T16:55:07.000Z</time>
      </trkpt>
      <trkpt lat="43.65274" lon="1.22379">
        <ele>201</ele>
        <time>2015-08-19T16:55:20.000Z</time>
      </trkpt>
      <trkpt lat="43.65257" lon="1.22336">
        <ele>201.19999694824</ele>
        <time>2015-08-19T16:55:34.000Z</time>
      </trkpt>
      <trkpt lat="43.65247" lon="1.22295">
        <ele>201.19999694824</ele>
        <time>2015-08-19T16:55:46.000Z</time>
      </trkpt>
      <trkpt lat="43.6523" lon="1.22244">
        <ele>201.19999694824</ele>
        <time>2015-08-19T16:56:01.000Z</time>
      </trkpt>
      <trkpt lat="43.65216" lon="1.22206">
        <ele>200.80000305176</ele>
        <time>2015-08-19T16:56:14.000Z</time>
      </trkpt>
      <trkpt lat="43.65197" lon="1.22154">
        <ele>200</ele>
        <time>2015-08-19T16:56:29.000Z</time>
      </trkpt>
      <trkpt lat="43.65182" lon="1.22116">
        <ele>200.39999389648</ele>
        <time>2015-08-19T16:56:44.000Z</time>
      </trkpt>
      <trkpt lat="43.65162" lon="1.22073">
        <ele>201.80000305176</ele>
        <time>2015-08-19T16:56:59.000Z</time>
      </trkpt>
      <trkpt lat="43.6516" lon="1.22068">
        <ele>201.80000305176</ele>
        <time>2015-08-19T16:57:03.000Z</time>
      </trkpt>
      <trkpt lat="43.65152" lon="1.22054">
        <ele>202.19999694824</ele>
        <time>2015-08-19T16:57:20.000Z</time>
      </trkpt>
      <trkpt lat="43.6515" lon="1.22038">
        <ele>202</ele>
        <time>2015-08-19T16:58:02.000Z</time>
      </trkpt>
      <trkpt lat="43.65136" lon="1.21998">
        <ele>202.60000610352</ele>
        <time>2015-08-19T16:58:20.000Z</time>
      </trkpt>
      <trkpt lat="43.65124" lon="1.21961">
        <ele>203.39999389648</ele>
        <time>2015-08-19T16:58:37.000Z</time>
      </trkpt>
      <trkpt lat="43.65114" lon="1.2194">
        <ele>204</ele>
        <time>2015-08-19T16:58:46.000Z</time>
      </trkpt>
      <trkpt lat="43.65104" lon="1.21914">
        <ele>204.80000305176</ele>
        <time>2015-08-19T16:58:59.000Z</time>
      </trkpt>
      <trkpt lat="43.65086" lon="1.21876">
        <ele>206.39999389648</ele>
        <time>2015-08-19T16:59:13.000Z</time>
      </trkpt>
      <trkpt lat="43.65068" lon="1.21828">
        <ele>208.19999694824</ele>
        <time>2015-08-19T16:59:25.000Z</time>
      </trkpt>
      <trkpt lat="43.65054" lon="1.21788">
        <ele>209.19999694824</ele>
        <time>2015-08-19T16:59:37.000Z</time>
      </trkpt>
      <trkpt lat="43.65039" lon="1.21754">
        <ele>209.80000305176</ele>
        <time>2015-08-19T16:59:50.000Z</time>
      </trkpt>
      <trkpt lat="43.65025" lon="1.21724">
        <ele>210.60000610352</ele>
        <time>2015-08-19T17:00:02.000Z</time>
      </trkpt>
      <trkpt lat="43.65011" lon="1.2169">
        <ele>211.39999389648</ele>
        <time>2015-08-19T17:00:15.000Z</time>
      </trkpt>
      <trkpt lat="43.6501" lon="1.21688">
        <ele>211.39999389648</ele>
        <time>2015-08-19T17:00:16.000Z</time>
      </trkpt>
      <trkpt lat="43.65007" lon="1.21675">
        <ele>211.60000610352</ele>
        <time>2015-08-19T17:00:20.000Z</time>
      </trkpt>
      <trkpt lat="43.65006" lon="1.21653">
        <ele>211.60000610352</ele>
        <time>2015-08-19T17:00:27.000Z</time>
      </trkpt>
      <trkpt lat="43.64996" lon="1.21618">
        <ele>213.60000610352</ele>
        <time>2015-08-19T17:00:40.000Z</time>
      </trkpt>
      <trkpt lat="43.64984" lon="1.21583">
        <ele>215.80000305176</ele>
        <time>2015-08-19T17:00:53.000Z</time>
      </trkpt>
      <trkpt lat="43.64974" lon="1.21553">
        <ele>217.80000305176</ele>
        <time>2015-08-19T17:01:07.000Z</time>
      </trkpt>
      <trkpt lat="43.64959" lon="1.21517">
        <ele>221</ele>
        <time>2015-08-19T17:01:20.000Z</time>
      </trkpt>
      <trkpt lat="43.64952" lon="1.21485">
        <ele>223.39999389648</ele>
        <time>2015-08-19T17:01:33.000Z</time>
      </trkpt>
      <trkpt lat="43.6494" lon="1.21449">
        <ele>225</ele>
        <time>2015-08-19T17:01:47.000Z</time>
      </trkpt>
      <trkpt lat="43.64934" lon="1.21436">
        <ele>225.60000610352</ele>
        <time>2015-08-19T17:01:54.000Z</time>
      </trkpt>
      <trkpt lat="43.64907" lon="1.21436">
        <ele>225.80000305176</ele>
        <time>2015-08-19T17:02:07.000Z</time>
      </trkpt>
      <trkpt lat="43.64888" lon="1.21437">
        <ele>226</ele>
        <time>2015-08-19T17:02:17.000Z</time>
      </trkpt>
      <trkpt lat="43.6489" lon="1.21452">
        <ele>225.80000305176</ele>
        <time>2015-08-19T17:02:30.000Z</time>
      </trkpt>
      <trkpt lat="43.6489" lon="1.21452">
        <ele>225.80000305176</ele>
        <time>2015-08-19T17:02:33.000Z</time>
      </trkpt>
      <trkpt lat="43.64895" lon="1.21455">
        <ele>225.80000305176</ele>
        <time>2015-08-19T17:03:18.000Z</time>
      </trkpt>
      <trkpt lat="43.64913" lon="1.21469">
        <ele>225.39999389648</ele>
        <time>2015-08-19T17:03:30.000Z</time>
      </trkpt>
      <trkpt lat="43.6492" lon="1.21478">
        <ele>225.19999694824</ele>
        <time>2015-08-19T17:03:44.000Z</time>
      </trkpt>
      <trkpt lat="43.6491" lon="1.21467">
        <ele>225.39999389648</ele>
        <time>2015-08-19T17:04:04.000Z</time>
      </trkpt>
      <trkpt lat="43.64893" lon="1.21461">
        <ele>225.80000305176</ele>
        <time>2015-08-19T17:04:29.000Z</time>
      </trkpt>
      <trkpt lat="43.6489" lon="1.21451">
        <ele>225.80000305176</ele>
        <time>2015-08-19T17:04:42.000Z</time>
      </trkpt>
      <trkpt lat="43.64881" lon="1.21412">
        <ele>226.39999389648</ele>
        <time>2015-08-19T17:04:56.000Z</time>
      </trkpt>
      <trkpt lat="43.64884" lon="1.21388">
        <ele>226</ele>
        <time>2015-08-19T17:05:08.000Z</time>
      </trkpt>
      <trkpt lat="43.64884" lon="1.21383">
        <ele>225.39999389648</ele>
        <time>2015-08-19T17:05:16.000Z</time>
      </trkpt>
      <trkpt lat="43.64882" lon="1.21379">
        <ele>225.19999694824</ele>
        <time>2015-08-19T17:12:25.000Z</time>
      </trkpt>
      <trkpt lat="43.64883" lon="1.21379">
        <ele>225</ele>
        <time>2015-08-19T17:12:26.000Z</time>
      </trkpt>
      <trkpt lat="43.64885" lon="1.21385">
        <ele>225.60000610352</ele>
        <time>2015-08-19T17:12:34.000Z</time>
      </trkpt>
      <trkpt lat="43.64883" lon="1.21391">
        <ele>226.19999694824</ele>
        <time>2015-08-19T17:13:16.000Z</time>
      </trkpt>
      <trkpt lat="43.64881" lon="1.21382">
        <ele>225.39999389648</ele>
        <time>2015-08-19T17:13:42.000Z</time>
      </trkpt>
      <trkpt lat="43.64882" lon="1.21391">
        <ele>226.19999694824</ele>
        <time>2015-08-19T17:14:04.000Z</time>
      </trkpt>
      <trkpt lat="43.64886" lon="1.21395">
        <ele>226.60000610352</ele>
        <time>2015-08-19T17:14:11.000Z</time>
      </trkpt>
      <trkpt lat="43.64884" lon="1.21388">
        <ele>226</ele>
        <time>2015-08-19T17:18:25.000Z</time>
      </trkpt>
      <trkpt lat="43.64883" lon="1.21386">
        <ele>225.80000305176</ele>
        <time>2015-08-19T17:18:30.000Z</time>
      </trkpt>
      <trkpt lat="43.64878" lon="1.21398">
        <ele>226.60000610352</ele>
        <time>2015-08-19T17:19:32.000Z</time>
      </trkpt>
      <trkpt lat="43.64882" lon="1.21432">
        <ele>226.19999694824</ele>
        <time>2015-08-19T17:19:43.000Z</time>
      </trkpt>
      <trkpt lat="43.64881" lon="1.21446">
        <ele>226</ele>
        <time>2015-08-19T17:19:49.000Z</time>
      </trkpt>
      <trkpt lat="43.64872" lon="1.21443">
        <ele>226.19999694824</ele>
        <time>2015-08-19T17:19:55.000Z</time>
      </trkpt>
      <trkpt lat="43.64868" lon="1.21443">
        <ele>226.19999694824</ele>
        <time>2015-08-19T17:19:57.000Z</time>
      </trkpt>
      <trkpt lat="43.64831" lon="1.21443">
        <ele>225.60000610352</ele>
        <time>2015-08-19T17:20:10.000Z</time>
      </trkpt>
      <trkpt lat="43.64787" lon="1.21443">
        <ele>224.80000305176</ele>
        <time>2015-08-19T17:20:24.000Z</time>
      </trkpt>
      <trkpt lat="43.64757" lon="1.21443">
        <ele>224.39999389648</ele>
        <time>2015-08-19T17:20:34.000Z</time>
      </trkpt>
      <trkpt lat="43.64722" lon="1.21457">
        <ele>224.19999694824</ele>
        <time>2015-08-19T17:20:49.000Z</time>
      </trkpt>
      <trkpt lat="43.64706" lon="1.21457">
        <ele>224</ele>
        <time>2015-08-19T17:20:57.000Z</time>
      </trkpt>
      <trkpt lat="43.64705" lon="1.21459">
        <ele>224</ele>
        <time>2015-08-19T17:20:58.000Z</time>
      </trkpt>
      <trkpt lat="43.64701" lon="1.21462">
        <ele>224</ele>
        <time>2015-08-19T17:21:03.000Z</time>
      </trkpt>
      <trkpt lat="43.64683" lon="1.2147">
        <ele>224</ele>
        <time>2015-08-19T17:21:15.000Z</time>
      </trkpt>
      <trkpt lat="43.64686" lon="1.21473">
        <ele>224</ele>
        <time>2015-08-19T17:21:24.000Z</time>
      </trkpt>
      <trkpt lat="43.6468" lon="1.21477">
        <ele>224.19999694824</ele>
        <time>2015-08-19T17:21:33.000Z</time>
      </trkpt>
      <trkpt lat="43.64677" lon="1.21478">
        <ele>224.19999694824</ele>
        <time>2015-08-19T17:21:35.000Z</time>
      </trkpt>
      <trkpt lat="43.64657" lon="1.21488">
        <ele>225</ele>
        <time>2015-08-19T17:21:47.000Z</time>
      </trkpt>
      <trkpt lat="43.64629" lon="1.21498">
        <ele>225.80000305176</ele>
        <time>2015-08-19T17:21:59.000Z</time>
      </trkpt>
      <trkpt lat="43.64612" lon="1.21494">
        <ele>226.39999389648</ele>
        <time>2015-08-19T17:22:06.000Z</time>
      </trkpt>
      <trkpt lat="43.646" lon="1.21493">
        <ele>226.60000610352</ele>
        <time>2015-08-19T17:22:11.000Z</time>
      </trkpt>
      <trkpt lat="43.64564" lon="1.21494">
        <ele>227.39999389648</ele>
        <time>2015-08-19T17:22:26.000Z</time>
      </trkpt>
      <trkpt lat="43.64527" lon="1.21505">
        <ele>227.60000610352</ele>
        <time>2015-08-19T17:22:40.000Z</time>
      </trkpt>
      <trkpt lat="43.64522" lon="1.21506">
        <ele>227.60000610352</ele>
        <time>2015-08-19T17:22:42.000Z</time>
      </trkpt>
      <trkpt lat="43.64517" lon="1.21505">
        <ele>227.80000305176</ele>
        <time>2015-08-19T17:22:44.000Z</time>
      </trkpt>
      <trkpt lat="43.64481" lon="1.21505">
        <ele>228.60000610352</ele>
        <time>2015-08-19T17:22:59.000Z</time>
      </trkpt>
      <trkpt lat="43.64448" lon="1.21505">
        <ele>229.39999389648</ele>
        <time>2015-08-19T17:23:11.000Z</time>
      </trkpt>
      <trkpt lat="43.64445" lon="1.21506">
        <ele>229.39999389648</ele>
        <time>2015-08-19T17:23:12.000Z</time>
      </trkpt>
      <trkpt lat="43.64437" lon="1.21506">
        <ele>229.60000610352</ele>
        <time>2015-08-19T17:23:15.000Z</time>
      </trkpt>
      <trkpt lat="43.64404" lon="1.21499">
        <ele>229.60000610352</ele>
        <time>2015-08-19T17:23:28.000Z</time>
      </trkpt>
      <trkpt lat="43.64383" lon="1.21484">
        <ele>230</ele>
        <time>2015-08-19T17:23:40.000Z</time>
      </trkpt>
      <trkpt lat="43.64382" lon="1.21486">
        <ele>230</ele>
        <time>2015-08-19T17:23:41.000Z</time>
      </trkpt>
      <trkpt lat="43.64376" lon="1.21496">
        <ele>229.39999389648</ele>
        <time>2015-08-19T17:23:45.000Z</time>
      </trkpt>
      <trkpt lat="43.64357" lon="1.21537">
        <ele>228.60000610352</ele>
        <time>2015-08-19T17:23:59.000Z</time>
      </trkpt>
      <trkpt lat="43.64352" lon="1.21549">
        <ele>228.39999389648</ele>
        <time>2015-08-19T17:24:03.000Z</time>
      </trkpt>
      <trkpt lat="43.64348" lon="1.21557">
        <ele>228.19999694824</ele>
        <time>2015-08-19T17:24:06.000Z</time>
      </trkpt>
      <trkpt lat="43.64328" lon="1.21598">
        <ele>227.80000305176</ele>
        <time>2015-08-19T17:24:20.000Z</time>
      </trkpt>
      <trkpt lat="43.64319" lon="1.21621">
        <ele>227.39999389648</ele>
        <time>2015-08-19T17:24:27.000Z</time>
      </trkpt>
      <trkpt lat="43.64317" lon="1.21628">
        <ele>227.39999389648</ele>
        <time>2015-08-19T17:24:29.000Z</time>
      </trkpt>
      <trkpt lat="43.64298" lon="1.21669">
        <ele>226.80000305176</ele>
        <time>2015-08-19T17:24:42.000Z</time>
      </trkpt>
      <trkpt lat="43.64294" lon="1.2168">
        <ele>226.60000610352</ele>
        <time>2015-08-19T17:24:45.000Z</time>
      </trkpt>
      <trkpt lat="43.64279" lon="1.2172">
        <ele>226.60000610352</ele>
        <time>2015-08-19T17:24:59.000Z</time>
      </trkpt>
      <trkpt lat="43.64263" lon="1.21753">
        <ele>226.39999389648</ele>
        <time>2015-08-19T17:25:10.000Z</time>
      </trkpt>
      <trkpt lat="43.64246" lon="1.2179">
        <ele>226.19999694824</ele>
        <time>2015-08-19T17:25:23.000Z</time>
      </trkpt>
      <trkpt lat="43.6423" lon="1.21828">
        <ele>226.19999694824</ele>
        <time>2015-08-19T17:25:35.000Z</time>
      </trkpt>
      <trkpt lat="43.64222" lon="1.21845">
        <ele>226.19999694824</ele>
        <time>2015-08-19T17:25:41.000Z</time>
      </trkpt>
      <trkpt lat="43.64217" lon="1.21857">
        <ele>226.19999694824</ele>
        <time>2015-08-19T17:25:45.000Z</time>
      </trkpt>
      <trkpt lat="43.64213" lon="1.21867">
        <ele>226.39999389648</ele>
        <time>2015-08-19T17:25:48.000Z</time>
      </trkpt>
      <trkpt lat="43.64208" lon="1.21879">
        <ele>226.60000610352</ele>
        <time>2015-08-19T17:25:52.000Z</time>
      </trkpt>
      <trkpt lat="43.64191" lon="1.21923">
        <ele>226</ele>
        <time>2015-08-19T17:26:06.000Z</time>
      </trkpt>
      <trkpt lat="43.64178" lon="1.21955">
        <ele>224.60000610352</ele>
        <time>2015-08-19T17:26:18.000Z</time>
      </trkpt>
      <trkpt lat="43.64154" lon="1.21999">
        <ele>222.80000305176</ele>
        <time>2015-08-19T17:26:33.000Z</time>
      </trkpt>
      <trkpt lat="43.64148" lon="1.22013">
        <ele>222.60000610352</ele>
        <time>2015-08-19T17:26:38.000Z</time>
      </trkpt>
      <trkpt lat="43.64124" lon="1.22064">
        <ele>221</ele>
        <time>2015-08-19T17:26:54.000Z</time>
      </trkpt>
      <trkpt lat="43.64116" lon="1.22082">
        <ele>221</ele>
        <time>2015-08-19T17:27:00.000Z</time>
      </trkpt>
      <trkpt lat="43.64105" lon="1.22107">
        <ele>221</ele>
        <time>2015-08-19T17:27:08.000Z</time>
      </trkpt>
      <trkpt lat="43.64106" lon="1.22141">
        <ele>221</ele>
        <time>2015-08-19T17:27:20.000Z</time>
      </trkpt>
      <trkpt lat="43.64117" lon="1.22149">
        <ele>221</ele>
        <time>2015-08-19T17:27:28.000Z</time>
      </trkpt>
      <trkpt lat="43.64103" lon="1.22145">
        <ele>221</ele>
        <time>2015-08-19T17:27:40.000Z</time>
      </trkpt>
      <trkpt lat="43.64128" lon="1.22164">
        <ele>220.60000610352</ele>
        <time>2015-08-19T17:27:54.000Z</time>
      </trkpt>
      <trkpt lat="43.64159" lon="1.22196">
        <ele>219.80000305176</ele>
        <time>2015-08-19T17:28:10.000Z</time>
      </trkpt>
      <trkpt lat="43.64176" lon="1.22223">
        <ele>219.19999694824</ele>
        <time>2015-08-19T17:28:22.000Z</time>
      </trkpt>
      <trkpt lat="43.64179" lon="1.22226">
        <ele>219</ele>
        <time>2015-08-19T17:28:24.000Z</time>
      </trkpt>
      <trkpt lat="43.64175" lon="1.22253">
        <ele>218.39999389648</ele>
        <time>2015-08-19T17:28:37.000Z</time>
      </trkpt>
      <trkpt lat="43.64169" lon="1.22278">
        <ele>217.80000305176</ele>
        <time>2015-08-19T17:28:49.000Z</time>
      </trkpt>
      <trkpt lat="43.6416" lon="1.22294">
        <ele>217.60000610352</ele>
        <time>2015-08-19T17:28:57.000Z</time>
      </trkpt>
      <trkpt lat="43.64158" lon="1.22299">
        <ele>217.80000305176</ele>
        <time>2015-08-19T17:28:59.000Z</time>
      </trkpt>
      <trkpt lat="43.64141" lon="1.22339">
        <ele>219</ele>
        <time>2015-08-19T17:29:13.000Z</time>
      </trkpt>
      <trkpt lat="43.64139" lon="1.22346">
        <ele>219</ele>
        <time>2015-08-19T17:29:15.000Z</time>
      </trkpt>
      <trkpt lat="43.64139" lon="1.22353">
        <ele>219.19999694824</ele>
        <time>2015-08-19T17:29:17.000Z</time>
      </trkpt>
      <trkpt lat="43.64132" lon="1.22397">
        <ele>219.39999389648</ele>
        <time>2015-08-19T17:29:31.000Z</time>
      </trkpt>
      <trkpt lat="43.64129" lon="1.22439">
        <ele>219.39999389648</ele>
        <time>2015-08-19T17:29:44.000Z</time>
      </trkpt>
      <trkpt lat="43.64131" lon="1.22469">
        <ele>219.19999694824</ele>
        <time>2015-08-19T17:29:53.000Z</time>
      </trkpt>
      <trkpt lat="43.64131" lon="1.22475">
        <ele>219</ele>
        <time>2015-08-19T17:29:55.000Z</time>
      </trkpt>
      <trkpt lat="43.64126" lon="1.22502">
        <ele>219.19999694824</ele>
        <time>2015-08-19T17:30:04.000Z</time>
      </trkpt>
      <trkpt lat="43.64122" lon="1.22545">
        <ele>219.80000305176</ele>
        <time>2015-08-19T17:30:20.000Z</time>
      </trkpt>
      <trkpt lat="43.64109" lon="1.22582">
        <ele>220</ele>
        <time>2015-08-19T17:30:33.000Z</time>
      </trkpt>
      <trkpt lat="43.64088" lon="1.22597">
        <ele>218.60000610352</ele>
        <time>2015-08-19T17:30:42.000Z</time>
      </trkpt>
      <trkpt lat="43.64057" lon="1.22622">
        <ele>216</ele>
        <time>2015-08-19T17:30:57.000Z</time>
      </trkpt>
      <trkpt lat="43.64026" lon="1.22635">
        <ele>213.60000610352</ele>
        <time>2015-08-19T17:31:08.000Z</time>
      </trkpt>
      <trkpt lat="43.64004" lon="1.22647">
        <ele>213</ele>
        <time>2015-08-19T17:31:16.000Z</time>
      </trkpt>
      <trkpt lat="43.63993" lon="1.22654">
        <ele>213</ele>
        <time>2015-08-19T17:31:20.000Z</time>
      </trkpt>
      <trkpt lat="43.63988" lon="1.22657">
        <ele>213</ele>
        <time>2015-08-19T17:31:22.000Z</time>
      </trkpt>
      <trkpt lat="43.63949" lon="1.22681">
        <ele>213.60000610352</ele>
        <time>2015-08-19T17:31:38.000Z</time>
      </trkpt>
      <trkpt lat="43.63944" lon="1.22711">
        <ele>214.39999389648</ele>
        <time>2015-08-19T17:31:48.000Z</time>
      </trkpt>
      <trkpt lat="43.63946" lon="1.22753">
        <ele>215.39999389648</ele>
        <time>2015-08-19T17:32:00.000Z</time>
      </trkpt>
      <trkpt lat="43.63949" lon="1.22771">
        <ele>215.80000305176</ele>
        <time>2015-08-19T17:32:05.000Z</time>
      </trkpt>
      <trkpt lat="43.63962" lon="1.22805">
        <ele>216.60000610352</ele>
        <time>2015-08-19T17:32:16.000Z</time>
      </trkpt>
      <trkpt lat="43.63977" lon="1.22824">
        <ele>216</ele>
        <time>2015-08-19T17:32:24.000Z</time>
      </trkpt>
      <trkpt lat="43.63992" lon="1.22872">
        <ele>213.60000610352</ele>
        <time>2015-08-19T17:32:40.000Z</time>
      </trkpt>
      <trkpt lat="43.63987" lon="1.22908">
        <ele>214</ele>
        <time>2015-08-19T17:32:50.000Z</time>
      </trkpt>
      <trkpt lat="43.63984" lon="1.22927">
        <ele>213.80000305176</ele>
        <time>2015-08-19T17:32:55.000Z</time>
      </trkpt>
      <trkpt lat="43.63976" lon="1.22956">
        <ele>213.60000610352</ele>
        <time>2015-08-19T17:33:03.000Z</time>
      </trkpt>
      <trkpt lat="43.63975" lon="1.22962">
        <ele>213.60000610352</ele>
        <time>2015-08-19T17:33:05.000Z</time>
      </trkpt>
      <trkpt lat="43.63973" lon="1.22982">
        <ele>213.39999389648</ele>
        <time>2015-08-19T17:33:11.000Z</time>
      </trkpt>
      <trkpt lat="43.63971" lon="1.22988">
        <ele>213.39999389648</ele>
        <time>2015-08-19T17:33:13.000Z</time>
      </trkpt>
      <trkpt lat="43.63995" lon="1.23023">
        <ele>211.80000305176</ele>
        <time>2015-08-19T17:33:26.000Z</time>
      </trkpt>
      <trkpt lat="43.6403" lon="1.23038">
        <ele>210.60000610352</ele>
        <time>2015-08-19T17:33:39.000Z</time>
      </trkpt>
      <trkpt lat="43.64046" lon="1.23044">
        <ele>211.39999389648</ele>
        <time>2015-08-19T17:33:45.000Z</time>
      </trkpt>
      <trkpt lat="43.64069" lon="1.23052">
        <ele>212.39999389648</ele>
        <time>2015-08-19T17:33:58.000Z</time>
      </trkpt>
      <trkpt lat="43.6407" lon="1.23052">
        <ele>212.39999389648</ele>
        <time>2015-08-19T17:34:02.000Z</time>
      </trkpt>
      <trkpt lat="43.64066" lon="1.2305">
        <ele>212.19999694824</ele>
        <time>2015-08-19T17:36:58.000Z</time>
      </trkpt>
      <trkpt lat="43.64056" lon="1.23051">
        <ele>211.80000305176</ele>
        <time>2015-08-19T17:37:09.000Z</time>
      </trkpt>
      <trkpt lat="43.64034" lon="1.23053">
        <ele>210.60000610352</ele>
        <time>2015-08-19T17:37:17.000Z</time>
      </trkpt>
      <trkpt lat="43.63997" lon="1.23056">
        <ele>211.80000305176</ele>
        <time>2015-08-19T17:37:30.000Z</time>
      </trkpt>
      <trkpt lat="43.63978" lon="1.23086">
        <ele>213.39999389648</ele>
        <time>2015-08-19T17:37:41.000Z</time>
      </trkpt>
      <trkpt lat="43.63969" lon="1.23098">
        <ele>214</ele>
        <time>2015-08-19T17:37:46.000Z</time>
      </trkpt>
      <trkpt lat="43.63964" lon="1.23106">
        <ele>213.80000305176</ele>
        <time>2015-08-19T17:37:49.000Z</time>
      </trkpt>
      <trkpt lat="43.63953" lon="1.23118">
        <ele>213.80000305176</ele>
        <time>2015-08-19T17:37:55.000Z</time>
      </trkpt>
      <trkpt lat="43.63933" lon="1.23143">
        <ele>213.19999694824</ele>
        <time>2015-08-19T17:38:08.000Z</time>
      </trkpt>
      <trkpt lat="43.63915" lon="1.23163">
        <ele>213.80000305176</ele>
        <time>2015-08-19T17:38:19.000Z</time>
      </trkpt>
      <trkpt lat="43.63886" lon="1.23197">
        <ele>214.80000305176</ele>
        <time>2015-08-19T17:38:34.000Z</time>
      </trkpt>
      <trkpt lat="43.63872" lon="1.23215">
        <ele>215.60000610352</ele>
        <time>2015-08-19T17:38:42.000Z</time>
      </trkpt>
      <trkpt lat="43.63869" lon="1.23218">
        <ele>215.80000305176</ele>
        <time>2015-08-19T17:38:44.000Z</time>
      </trkpt>
      <trkpt lat="43.63848" lon="1.23246">
        <ele>216.39999389648</ele>
        <time>2015-08-19T17:38:56.000Z</time>
      </trkpt>
      <trkpt lat="43.6384" lon="1.23257">
        <ele>216.19999694824</ele>
        <time>2015-08-19T17:39:00.000Z</time>
      </trkpt>
      <trkpt lat="43.63836" lon="1.23263">
        <ele>216.19999694824</ele>
        <time>2015-08-19T17:39:02.000Z</time>
      </trkpt>
      <trkpt lat="43.63809" lon="1.23297">
        <ele>215</ele>
        <time>2015-08-19T17:39:16.000Z</time>
      </trkpt>
      <trkpt lat="43.63804" lon="1.23298">
        <ele>214.80000305176</ele>
        <time>2015-08-19T17:39:20.000Z</time>
      </trkpt>
      <trkpt lat="43.63796" lon="1.23298">
        <ele>214.80000305176</ele>
        <time>2015-08-19T17:39:24.000Z</time>
      </trkpt>
      <trkpt lat="43.63792" lon="1.23298">
        <ele>214.80000305176</ele>
        <time>2015-08-19T17:39:26.000Z</time>
      </trkpt>
      <trkpt lat="43.63782" lon="1.23291">
        <ele>215.19999694824</ele>
        <time>2015-08-19T17:39:31.000Z</time>
      </trkpt>
      <trkpt lat="43.63758" lon="1.23275">
        <ele>215.60000610352</ele>
        <time>2015-08-19T17:39:43.000Z</time>
      </trkpt>
      <trkpt lat="43.63753" lon="1.2327">
        <ele>215.80000305176</ele>
        <time>2015-08-19T17:39:46.000Z</time>
      </trkpt>
      <trkpt lat="43.63751" lon="1.23266">
        <ele>216</ele>
        <time>2015-08-19T17:39:56.000Z</time>
      </trkpt>
      <trkpt lat="43.63745" lon="1.2326">
        <ele>216</ele>
        <time>2015-08-19T17:40:32.000Z</time>
      </trkpt>
      <trkpt lat="43.63744" lon="1.2326">
        <ele>216</ele>
        <time>2015-08-19T17:40:36.000Z</time>
      </trkpt>
      <trkpt lat="43.63754" lon="1.2327">
        <ele>215.80000305176</ele>
        <time>2015-08-19T17:41:05.000Z</time>
      </trkpt>
      <trkpt lat="43.63757" lon="1.23272">
        <ele>215.80000305176</ele>
        <time>2015-08-19T17:41:08.000Z</time>
      </trkpt>
      <trkpt lat="43.63784" lon="1.2329">
        <ele>215.39999389648</ele>
        <time>2015-08-19T17:41:19.000Z</time>
      </trkpt>
      <trkpt lat="43.63796" lon="1.23292">
        <ele>215.19999694824</ele>
        <time>2015-08-19T17:41:22.000Z</time>
      </trkpt>
      <trkpt lat="43.63806" lon="1.23298">
        <ele>214.80000305176</ele>
        <time>2015-08-19T17:41:25.000Z</time>
      </trkpt>
      <trkpt lat="43.63827" lon="1.23324">
        <ele>213.19999694824</ele>
        <time>2015-08-19T17:41:33.000Z</time>
      </trkpt>
      <trkpt lat="43.63825" lon="1.23332">
        <ele>212.80000305176</ele>
        <time>2015-08-19T17:41:35.000Z</time>
      </trkpt>
      <trkpt lat="43.63813" lon="1.2336">
        <ele>211.19999694824</ele>
        <time>2015-08-19T17:41:43.000Z</time>
      </trkpt>
      <trkpt lat="43.6381" lon="1.23371">
        <ele>210.60000610352</ele>
        <time>2015-08-19T17:41:46.000Z</time>
      </trkpt>
      <trkpt lat="43.63802" lon="1.23405">
        <ele>209</ele>
        <time>2015-08-19T17:41:54.000Z</time>
      </trkpt>
      <trkpt lat="43.638" lon="1.23412">
        <ele>208.60000610352</ele>
        <time>2015-08-19T17:41:56.000Z</time>
      </trkpt>
      <trkpt lat="43.63782" lon="1.23464">
        <ele>207</ele>
        <time>2015-08-19T17:42:09.000Z</time>
      </trkpt>
      <trkpt lat="43.63781" lon="1.23467">
        <ele>207</ele>
        <time>2015-08-19T17:42:10.000Z</time>
      </trkpt>
      <trkpt lat="43.63757" lon="1.23506">
        <ele>206</ele>
        <time>2015-08-19T17:42:24.000Z</time>
      </trkpt>
      <trkpt lat="43.63751" lon="1.23515">
        <ele>205.39999389648</ele>
        <time>2015-08-19T17:42:27.000Z</time>
      </trkpt>
      <trkpt lat="43.63736" lon="1.23557">
        <ele>205.19999694824</ele>
        <time>2015-08-19T17:42:40.000Z</time>
      </trkpt>
      <trkpt lat="43.63728" lon="1.23594">
        <ele>205.19999694824</ele>
        <time>2015-08-19T17:42:51.000Z</time>
      </trkpt>
      <trkpt lat="43.63731" lon="1.23604">
        <ele>205</ele>
        <time>2015-08-19T17:42:54.000Z</time>
      </trkpt>
      <trkpt lat="43.63757" lon="1.2363">
        <ele>204.39999389648</ele>
        <time>2015-08-19T17:43:06.000Z</time>
      </trkpt>
      <trkpt lat="43.63768" lon="1.23651">
        <ele>203.80000305176</ele>
        <time>2015-08-19T17:43:14.000Z</time>
      </trkpt>
      <trkpt lat="43.63771" lon="1.2371">
        <ele>202.39999389648</ele>
        <time>2015-08-19T17:43:28.000Z</time>
      </trkpt>
      <trkpt lat="43.63766" lon="1.23757">
        <ele>201.39999389648</ele>
        <time>2015-08-19T17:43:41.000Z</time>
      </trkpt>
      <trkpt lat="43.63769" lon="1.23807">
        <ele>200.19999694824</ele>
        <time>2015-08-19T17:43:55.000Z</time>
      </trkpt>
      <trkpt lat="43.63768" lon="1.23813">
        <ele>200</ele>
        <time>2015-08-19T17:43:57.000Z</time>
      </trkpt>
      <trkpt lat="43.6375" lon="1.23852">
        <ele>200</ele>
        <time>2015-08-19T17:44:10.000Z</time>
      </trkpt>
      <trkpt lat="43.63747" lon="1.23858">
        <ele>200</ele>
        <time>2015-08-19T17:44:12.000Z</time>
      </trkpt>
      <trkpt lat="43.63722" lon="1.23899">
        <ele>200</ele>
        <time>2015-08-19T17:44:27.000Z</time>
      </trkpt>
      <trkpt lat="43.63708" lon="1.23936">
        <ele>199.60000610352</ele>
        <time>2015-08-19T17:44:39.000Z</time>
      </trkpt>
      <trkpt lat="43.637" lon="1.23955">
        <ele>199.19999694824</ele>
        <time>2015-08-19T17:44:45.000Z</time>
      </trkpt>
      <trkpt lat="43.63679" lon="1.23995">
        <ele>198.80000305176</ele>
        <time>2015-08-19T17:44:59.000Z</time>
      </trkpt>
      <trkpt lat="43.63671" lon="1.24014">
        <ele>198.39999389648</ele>
        <time>2015-08-19T17:45:05.000Z</time>
      </trkpt>
      <trkpt lat="43.63666" lon="1.24024">
        <ele>198.39999389648</ele>
        <time>2015-08-19T17:45:08.000Z</time>
      </trkpt>
      <trkpt lat="43.63659" lon="1.24045">
        <ele>198</ele>
        <time>2015-08-19T17:45:15.000Z</time>
      </trkpt>
      <trkpt lat="43.63655" lon="1.24059">
        <ele>197.60000610352</ele>
        <time>2015-08-19T17:45:28.000Z</time>
      </trkpt>
      <trkpt lat="43.63653" lon="1.24073">
        <ele>197</ele>
        <time>2015-08-19T17:46:51.000Z</time>
      </trkpt>
      <trkpt lat="43.63644" lon="1.24115">
        <ele>195.39999389648</ele>
        <time>2015-08-19T17:47:03.000Z</time>
      </trkpt>
      <trkpt lat="43.63637" lon="1.24136">
        <ele>195</ele>
        <time>2015-08-19T17:47:11.000Z</time>
      </trkpt>
      <trkpt lat="43.63635" lon="1.24143">
        <ele>194.80000305176</ele>
        <time>2015-08-19T17:47:13.000Z</time>
      </trkpt>
      <trkpt lat="43.63638" lon="1.24181">
        <ele>195.19999694824</ele>
        <time>2015-08-19T17:47:24.000Z</time>
      </trkpt>
      <trkpt lat="43.63645" lon="1.24213">
        <ele>195</ele>
        <time>2015-08-19T17:47:34.000Z</time>
      </trkpt>
      <trkpt lat="43.63658" lon="1.24236">
        <ele>195.19999694824</ele>
        <time>2015-08-19T17:47:48.000Z</time>
      </trkpt>
      <trkpt lat="43.63664" lon="1.24246">
        <ele>195.39999389648</ele>
        <time>2015-08-19T17:47:59.000Z</time>
      </trkpt>
      <trkpt lat="43.63668" lon="1.24252">
        <ele>195.60000610352</ele>
        <time>2015-08-19T17:48:05.000Z</time>
      </trkpt>
      <trkpt lat="43.63673" lon="1.24257">
        <ele>196</ele>
        <time>2015-08-19T17:48:11.000Z</time>
      </trkpt>
      <trkpt lat="43.63682" lon="1.24271">
        <ele>196.19999694824</ele>
        <time>2015-08-19T17:48:24.000Z</time>
      </trkpt>
      <trkpt lat="43.63692" lon="1.24312">
        <ele>196</ele>
        <time>2015-08-19T17:48:36.000Z</time>
      </trkpt>
      <trkpt lat="43.63701" lon="1.24346">
        <ele>196.60000610352</ele>
        <time>2015-08-19T17:48:47.000Z</time>
      </trkpt>
      <trkpt lat="43.63706" lon="1.24363">
        <ele>196.80000305176</ele>
        <time>2015-08-19T17:48:53.000Z</time>
      </trkpt>
      <trkpt lat="43.63721" lon="1.24404">
        <ele>196.80000305176</ele>
        <time>2015-08-19T17:49:08.000Z</time>
      </trkpt>
      <trkpt lat="43.63736" lon="1.24425">
        <ele>196.39999389648</ele>
        <time>2015-08-19T17:49:18.000Z</time>
      </trkpt>
      <trkpt lat="43.63749" lon="1.24433">
        <ele>196.39999389648</ele>
        <time>2015-08-19T17:49:24.000Z</time>
      </trkpt>
      <trkpt lat="43.63776" lon="1.24465">
        <ele>195.80000305176</ele>
        <time>2015-08-19T17:49:39.000Z</time>
      </trkpt>
      <trkpt lat="43.63794" lon="1.24495">
        <ele>195.60000610352</ele>
        <time>2015-08-19T17:49:50.000Z</time>
      </trkpt>
      <trkpt lat="43.63811" lon="1.24506">
        <ele>196</ele>
        <time>2015-08-19T17:50:02.000Z</time>
      </trkpt>
      <trkpt lat="43.63818" lon="1.24508">
        <ele>196.19999694824</ele>
        <time>2015-08-19T17:50:05.000Z</time>
      </trkpt>
      <trkpt lat="43.63825" lon="1.24511">
        <ele>196.39999389648</ele>
        <time>2015-08-19T17:50:08.000Z</time>
      </trkpt>
      <trkpt lat="43.6383" lon="1.24513">
        <ele>196.39999389648</ele>
        <time>2015-08-19T17:50:10.000Z</time>
      </trkpt>
      <trkpt lat="43.63857" lon="1.24525">
        <ele>197.19999694824</ele>
        <time>2015-08-19T17:50:23.000Z</time>
      </trkpt>
      <trkpt lat="43.63859" lon="1.24525">
        <ele>197.19999694824</ele>
        <time>2015-08-19T17:50:24.000Z</time>
      </trkpt>
      <trkpt lat="43.63875" lon="1.24535">
        <ele>197.80000305176</ele>
        <time>2015-08-19T17:50:33.000Z</time>
      </trkpt>
      <trkpt lat="43.63856" lon="1.24561">
        <ele>197.19999694824</ele>
        <time>2015-08-19T17:50:46.000Z</time>
      </trkpt>
      <trkpt lat="43.63855" lon="1.24562">
        <ele>197</ele>
        <time>2015-08-19T17:50:47.000Z</time>
      </trkpt>
      <trkpt lat="43.63832" lon="1.24587">
        <ele>196</ele>
        <time>2015-08-19T17:51:00.000Z</time>
      </trkpt>
      <trkpt lat="43.63823" lon="1.24607">
        <ele>195.60000610352</ele>
        <time>2015-08-19T17:51:08.000Z</time>
      </trkpt>
      <trkpt lat="43.63821" lon="1.24614">
        <ele>195.60000610352</ele>
        <time>2015-08-19T17:51:11.000Z</time>
      </trkpt>
      <trkpt lat="43.63821" lon="1.24662">
        <ele>195.60000610352</ele>
        <time>2015-08-19T17:51:27.000Z</time>
      </trkpt>
      <trkpt lat="43.63824" lon="1.24674">
        <ele>195.60000610352</ele>
        <time>2015-08-19T17:51:31.000Z</time>
      </trkpt>
      <trkpt lat="43.63825" lon="1.24697">
        <ele>195.39999389648</ele>
        <time>2015-08-19T17:51:37.000Z</time>
      </trkpt>
      <trkpt lat="43.6382" lon="1.24722">
        <ele>196.19999694824</ele>
        <time>2015-08-19T17:51:45.000Z</time>
      </trkpt>
      <trkpt lat="43.63818" lon="1.24727">
        <ele>196.39999389648</ele>
        <time>2015-08-19T17:51:47.000Z</time>
      </trkpt>
      <trkpt lat="43.63812" lon="1.24742">
        <ele>196.39999389648</ele>
        <time>2015-08-19T17:51:52.000Z</time>
      </trkpt>
      <trkpt lat="43.63808" lon="1.24769">
        <ele>196.60000610352</ele>
        <time>2015-08-19T17:52:00.000Z</time>
      </trkpt>
      <trkpt lat="43.63806" lon="1.24787">
        <ele>195.80000305176</ele>
        <time>2015-08-19T17:52:05.000Z</time>
      </trkpt>
      <trkpt lat="43.63806" lon="1.24799">
        <ele>195.39999389648</ele>
        <time>2015-08-19T17:52:09.000Z</time>
      </trkpt>
      <trkpt lat="43.63807" lon="1.24812">
        <ele>195</ele>
        <time>2015-08-19T17:52:13.000Z</time>
      </trkpt>
      <trkpt lat="43.63804" lon="1.24839">
        <ele>193.80000305176</ele>
        <time>2015-08-19T17:52:22.000Z</time>
      </trkpt>
      <trkpt lat="43.63804" lon="1.2485">
        <ele>193.60000610352</ele>
        <time>2015-08-19T17:52:25.000Z</time>
      </trkpt>
      <trkpt lat="43.63804" lon="1.24875">
        <ele>193</ele>
        <time>2015-08-19T17:52:32.000Z</time>
      </trkpt>
      <trkpt lat="43.63805" lon="1.24882">
        <ele>192.80000305176</ele>
        <time>2015-08-19T17:52:34.000Z</time>
      </trkpt>
      <trkpt lat="43.63813" lon="1.24944">
        <ele>193.60000610352</ele>
        <time>2015-08-19T17:52:52.000Z</time>
      </trkpt>
      <trkpt lat="43.63815" lon="1.24967">
        <ele>194</ele>
        <time>2015-08-19T17:52:59.000Z</time>
      </trkpt>
      <trkpt lat="43.63817" lon="1.24977">
        <ele>194.19999694824</ele>
        <time>2015-08-19T17:53:03.000Z</time>
      </trkpt>
      <trkpt lat="43.63818" lon="1.2498">
        <ele>194.19999694824</ele>
        <time>2015-08-19T17:53:10.000Z</time>
      </trkpt>
      <trkpt lat="43.63825" lon="1.24973">
        <ele>194.19999694824</ele>
        <time>2015-08-19T17:54:48.000Z</time>
      </trkpt>
      <trkpt lat="43.63825" lon="1.24972">
        <ele>194.19999694824</ele>
        <time>2015-08-19T17:54:49.000Z</time>
      </trkpt>
      <trkpt lat="43.6385" lon="1.24952">
        <ele>194.39999389648</ele>
        <time>2015-08-19T17:55:04.000Z</time>
      </trkpt>
      <trkpt lat="43.6386" lon="1.24941">
        <ele>194</ele>
        <time>2015-08-19T17:55:09.000Z</time>
      </trkpt>
      <trkpt lat="43.63867" lon="1.24932">
        <ele>193.80000305176</ele>
        <time>2015-08-19T17:55:14.000Z</time>
      </trkpt>
      <trkpt lat="43.6389" lon="1.24908">
        <ele>194.19999694824</ele>
        <time>2015-08-19T17:55:29.000Z</time>
      </trkpt>
      <trkpt lat="43.63904" lon="1.24892">
        <ele>195</ele>
        <time>2015-08-19T17:55:39.000Z</time>
      </trkpt>
      <trkpt lat="43.63918" lon="1.24879">
        <ele>196</ele>
        <time>2015-08-19T17:55:47.000Z</time>
      </trkpt>
      <trkpt lat="43.63946" lon="1.24853">
        <ele>196.60000610352</ele>
        <time>2015-08-19T17:56:01.000Z</time>
      </trkpt>
      <trkpt lat="43.63969" lon="1.24829">
        <ele>197</ele>
        <time>2015-08-19T17:56:14.000Z</time>
      </trkpt>
      <trkpt lat="43.63994" lon="1.248">
        <ele>196.80000305176</ele>
        <time>2015-08-19T17:56:27.000Z</time>
      </trkpt>
      <trkpt lat="43.64022" lon="1.24772">
        <ele>196</ele>
        <time>2015-08-19T17:56:42.000Z</time>
      </trkpt>
      <trkpt lat="43.64051" lon="1.24743">
        <ele>195</ele>
        <time>2015-08-19T17:56:55.000Z</time>
      </trkpt>
      <trkpt lat="43.64082" lon="1.24711">
        <ele>195</ele>
        <time>2015-08-19T17:57:09.000Z</time>
      </trkpt>
      <trkpt lat="43.64113" lon="1.24677">
        <ele>195.39999389648</ele>
        <time>2015-08-19T17:57:23.000Z</time>
      </trkpt>
      <trkpt lat="43.6414" lon="1.24654">
        <ele>195.39999389648</ele>
        <time>2015-08-19T17:57:36.000Z</time>
      </trkpt>
      <trkpt lat="43.64169" lon="1.24624">
        <ele>195.80000305176</ele>
        <time>2015-08-19T17:57:49.000Z</time>
      </trkpt>
      <trkpt lat="43.64194" lon="1.24598">
        <ele>196.39999389648</ele>
        <time>2015-08-19T17:58:02.000Z</time>
      </trkpt>
      <trkpt lat="43.64208" lon="1.24579">
        <ele>197</ele>
        <time>2015-08-19T17:58:09.000Z</time>
      </trkpt>
      <trkpt lat="43.64227" lon="1.24559">
        <ele>196.39999389648</ele>
        <time>2015-08-19T17:58:17.000Z</time>
      </trkpt>
      <trkpt lat="43.64231" lon="1.24554">
        <ele>196.39999389648</ele>
        <time>2015-08-19T17:58:19.000Z</time>
      </trkpt>
      <trkpt lat="43.64256" lon="1.24526">
        <ele>196.19999694824</ele>
        <time>2015-08-19T17:58:32.000Z</time>
      </trkpt>
      <trkpt lat="43.64263" lon="1.2452">
        <ele>196.39999389648</ele>
        <time>2015-08-19T17:58:35.000Z</time>
      </trkpt>
      <trkpt lat="43.64269" lon="1.24513">
        <ele>196.60000610352</ele>
        <time>2015-08-19T17:58:39.000Z</time>
      </trkpt>
      <trkpt lat="43.64284" lon="1.24492">
        <ele>197</ele>
        <time>2015-08-19T17:58:49.000Z</time>
      </trkpt>
      <trkpt lat="43.64288" lon="1.24488">
        <ele>196.80000305176</ele>
        <time>2015-08-19T17:58:51.000Z</time>
      </trkpt>
      <trkpt lat="43.64321" lon="1.24455">
        <ele>196.60000610352</ele>
        <time>2015-08-19T17:59:07.000Z</time>
      </trkpt>
      <trkpt lat="43.64349" lon="1.24429">
        <ele>196</ele>
        <time>2015-08-19T17:59:21.000Z</time>
      </trkpt>
      <trkpt lat="43.64375" lon="1.24402">
        <ele>195.60000610352</ele>
        <time>2015-08-19T17:59:35.000Z</time>
      </trkpt>
      <trkpt lat="43.64401" lon="1.24369">
        <ele>195.80000305176</ele>
        <time>2015-08-19T17:59:47.000Z</time>
      </trkpt>
      <trkpt lat="43.64427" lon="1.24345">
        <ele>195.80000305176</ele>
        <time>2015-08-19T17:59:59.000Z</time>
      </trkpt>
      <trkpt lat="43.64454" lon="1.24319">
        <ele>195.39999389648</ele>
        <time>2015-08-19T18:00:13.000Z</time>
      </trkpt>
      <trkpt lat="43.6447" lon="1.24299">
        <ele>194.19999694824</ele>
        <time>2015-08-19T18:00:23.000Z</time>
      </trkpt>
      <trkpt lat="43.64495" lon="1.24268">
        <ele>193</ele>
        <time>2015-08-19T18:00:38.000Z</time>
      </trkpt>
      <trkpt lat="43.64524" lon="1.24244">
        <ele>193.19999694824</ele>
        <time>2015-08-19T18:00:52.000Z</time>
      </trkpt>
      <trkpt lat="43.64536" lon="1.2423">
        <ele>193.80000305176</ele>
        <time>2015-08-19T18:00:59.000Z</time>
      </trkpt>
      <trkpt lat="43.64553" lon="1.24209">
        <ele>195.39999389648</ele>
        <time>2015-08-19T18:01:09.000Z</time>
      </trkpt>
      <trkpt lat="43.64585" lon="1.24177">
        <ele>197.60000610352</ele>
        <time>2015-08-19T18:01:24.000Z</time>
      </trkpt>
      <trkpt lat="43.64603" lon="1.24159">
        <ele>198.80000305176</ele>
        <time>2015-08-19T18:01:32.000Z</time>
      </trkpt>
      <trkpt lat="43.64639" lon="1.2413">
        <ele>200.39999389648</ele>
        <time>2015-08-19T18:01:46.000Z</time>
      </trkpt>
      <trkpt lat="43.64666" lon="1.24109">
        <ele>201</ele>
        <time>2015-08-19T18:01:58.000Z</time>
      </trkpt>
      <trkpt lat="43.64683" lon="1.24079">
        <ele>200.19999694824</ele>
        <time>2015-08-19T18:02:11.000Z</time>
      </trkpt>
      <trkpt lat="43.64701" lon="1.24054">
        <ele>199.60000610352</ele>
        <time>2015-08-19T18:02:23.000Z</time>
      </trkpt>
      <trkpt lat="43.64704" lon="1.24053">
        <ele>199.60000610352</ele>
        <time>2015-08-19T18:02:25.000Z</time>
      </trkpt>
      <trkpt lat="43.64706" lon="1.2405">
        <ele>199.39999389648</ele>
        <time>2015-08-19T18:02:28.000Z</time>
      </trkpt>
      <trkpt lat="43.64728" lon="1.24026">
        <ele>198.60000610352</ele>
        <time>2015-08-19T18:02:39.000Z</time>
      </trkpt>
      <trkpt lat="43.64753" lon="1.23999">
        <ele>198.19999694824</ele>
        <time>2015-08-19T18:02:54.000Z</time>
      </trkpt>
      <trkpt lat="43.64754" lon="1.23998">
        <ele>198.19999694824</ele>
        <time>2015-08-19T18:02:55.000Z</time>
      </trkpt>
      <trkpt lat="43.64764" lon="1.23994">
        <ele>198.19999694824</ele>
        <time>2015-08-19T18:03:08.000Z</time>
      </trkpt>
      <trkpt lat="43.64768" lon="1.23993">
        <ele>198.19999694824</ele>
        <time>2015-08-19T18:03:15.000Z</time>
      </trkpt>
      <trkpt lat="43.64763" lon="1.23996">
        <ele>198.19999694824</ele>
        <time>2015-08-19T18:05:55.000Z</time>
      </trkpt>
      <trkpt lat="43.64753" lon="1.24008">
        <ele>198.39999389648</ele>
        <time>2015-08-19T18:06:01.000Z</time>
      </trkpt>
      <trkpt lat="43.6474" lon="1.24021">
        <ele>198.60000610352</ele>
        <time>2015-08-19T18:06:07.000Z</time>
      </trkpt>
      <trkpt lat="43.64712" lon="1.24048">
        <ele>199.39999389648</ele>
        <time>2015-08-19T18:06:20.000Z</time>
      </trkpt>
      <trkpt lat="43.64693" lon="1.24073">
        <ele>200</ele>
        <time>2015-08-19T18:06:31.000Z</time>
      </trkpt>
      <trkpt lat="43.64677" lon="1.2409">
        <ele>200.60000610352</ele>
        <time>2015-08-19T18:06:37.000Z</time>
      </trkpt>
      <trkpt lat="43.64672" lon="1.24094">
        <ele>200.80000305176</ele>
        <time>2015-08-19T18:06:39.000Z</time>
      </trkpt>
      <trkpt lat="43.64651" lon="1.24115">
        <ele>201.19999694824</ele>
        <time>2015-08-19T18:06:46.000Z</time>
      </trkpt>
      <trkpt lat="43.64635" lon="1.24132">
        <ele>200.19999694824</ele>
        <time>2015-08-19T18:06:52.000Z</time>
      </trkpt>
      <trkpt lat="43.64617" lon="1.24151">
        <ele>199.39999389648</ele>
        <time>2015-08-19T18:06:59.000Z</time>
      </trkpt>
      <trkpt lat="43.64614" lon="1.24156">
        <ele>199.39999389648</ele>
        <time>2015-08-19T18:07:01.000Z</time>
      </trkpt>
      <trkpt lat="43.6461" lon="1.24161">
        <ele>199</ele>
        <time>2015-08-19T18:07:03.000Z</time>
      </trkpt>
      <trkpt lat="43.64603" lon="1.24168">
        <ele>198.39999389648</ele>
        <time>2015-08-19T18:07:07.000Z</time>
      </trkpt>
      <trkpt lat="43.6457" lon="1.24209">
        <ele>196.19999694824</ele>
        <time>2015-08-19T18:07:22.000Z</time>
      </trkpt>
      <trkpt lat="43.64552" lon="1.2423">
        <ele>194.60000610352</ele>
        <time>2015-08-19T18:07:29.000Z</time>
      </trkpt>
      <trkpt lat="43.64536" lon="1.24249">
        <ele>193.39999389648</ele>
        <time>2015-08-19T18:07:36.000Z</time>
      </trkpt>
      <trkpt lat="43.64529" lon="1.24256">
        <ele>193.19999694824</ele>
        <time>2015-08-19T18:07:39.000Z</time>
      </trkpt>
      <trkpt lat="43.64509" lon="1.24277">
        <ele>193</ele>
        <time>2015-08-19T18:07:51.000Z</time>
      </trkpt>
      <trkpt lat="43.64507" lon="1.24278">
        <ele>193</ele>
        <time>2015-08-19T18:07:54.000Z</time>
      </trkpt>
      <trkpt lat="43.64504" lon="1.24277">
        <ele>193</ele>
        <time>2015-08-19T18:07:57.000Z</time>
      </trkpt>
      <trkpt lat="43.64501" lon="1.24279">
        <ele>193</ele>
        <time>2015-08-19T18:08:06.000Z</time>
      </trkpt>
      <trkpt lat="43.64515" lon="1.24254">
        <ele>193</ele>
        <time>2015-08-19T18:08:39.000Z</time>
      </trkpt>
      <trkpt lat="43.64516" lon="1.24252">
        <ele>193</ele>
        <time>2015-08-19T18:08:40.000Z</time>
      </trkpt>
      <trkpt lat="43.64527" lon="1.24241">
        <ele>193.19999694824</ele>
        <time>2015-08-19T18:08:52.000Z</time>
      </trkpt>
      <trkpt lat="43.64535" lon="1.24233">
        <ele>193.60000610352</ele>
        <time>2015-08-19T18:09:02.000Z</time>
      </trkpt>
      <trkpt lat="43.64537" lon="1.24232">
        <ele>193.80000305176</ele>
        <time>2015-08-19T18:09:04.000Z</time>
      </trkpt>
      <trkpt lat="43.64546" lon="1.24227">
        <ele>194.39999389648</ele>
        <time>2015-08-19T18:09:13.000Z</time>
      </trkpt>
      <trkpt lat="43.64549" lon="1.24227">
        <ele>194.60000610352</ele>
        <time>2015-08-19T18:09:16.000Z</time>
      </trkpt>
      <trkpt lat="43.64554" lon="1.24219">
        <ele>195</ele>
        <time>2015-08-19T18:09:24.000Z</time>
      </trkpt>
      <trkpt lat="43.64562" lon="1.2421">
        <ele>195.80000305176</ele>
        <time>2015-08-19T18:09:33.000Z</time>
      </trkpt>
      <trkpt lat="43.64571" lon="1.24201">
        <ele>196.60000610352</ele>
        <time>2015-08-19T18:09:44.000Z</time>
      </trkpt>
      <trkpt lat="43.64573" lon="1.24198">
        <ele>196.60000610352</ele>
        <time>2015-08-19T18:09:46.000Z</time>
      </trkpt>
      <trkpt lat="43.64581" lon="1.24184">
        <ele>197.19999694824</ele>
        <time>2015-08-19T18:09:57.000Z</time>
      </trkpt>
      <trkpt lat="43.64582" lon="1.24182">
        <ele>197.39999389648</ele>
        <time>2015-08-19T18:09:59.000Z</time>
      </trkpt>
      <trkpt lat="43.64588" lon="1.24176">
        <ele>197.80000305176</ele>
        <time>2015-08-19T18:10:05.000Z</time>
      </trkpt>
      <trkpt lat="43.6459" lon="1.24174">
        <ele>197.80000305176</ele>
        <time>2015-08-19T18:10:07.000Z</time>
      </trkpt>
      <trkpt lat="43.646" lon="1.24161">
        <ele>198.60000610352</ele>
        <time>2015-08-19T18:10:19.000Z</time>
      </trkpt>
      <trkpt lat="43.64615" lon="1.24147">
        <ele>199.39999389648</ele>
        <time>2015-08-19T18:10:33.000Z</time>
      </trkpt>
      <trkpt lat="43.64618" lon="1.24145">
        <ele>199.39999389648</ele>
        <time>2015-08-19T18:10:36.000Z</time>
      </trkpt>
      <trkpt lat="43.6462" lon="1.24142">
        <ele>199.60000610352</ele>
        <time>2015-08-19T18:10:39.000Z</time>
      </trkpt>
      <trkpt lat="43.64625" lon="1.24138">
        <ele>199.80000305176</ele>
        <time>2015-08-19T18:10:44.000Z</time>
      </trkpt>
      <trkpt lat="43.64629" lon="1.24134">
        <ele>200</ele>
        <time>2015-08-19T18:10:49.000Z</time>
      </trkpt>
      <trkpt lat="43.64636" lon="1.2413">
        <ele>200.39999389648</ele>
        <time>2015-08-19T18:10:54.000Z</time>
      </trkpt>
      <trkpt lat="43.64653" lon="1.24118">
        <ele>201.19999694824</ele>
        <time>2015-08-19T18:11:10.000Z</time>
      </trkpt>
      <trkpt lat="43.64664" lon="1.24106">
        <ele>201</ele>
        <time>2015-08-19T18:11:23.000Z</time>
      </trkpt>
      <trkpt lat="43.64667" lon="1.24102">
        <ele>201</ele>
        <time>2015-08-19T18:11:27.000Z</time>
      </trkpt>
      <trkpt lat="43.64673" lon="1.24094">
        <ele>200.60000610352</ele>
        <time>2015-08-19T18:11:33.000Z</time>
      </trkpt>
      <trkpt lat="43.64676" lon="1.24092">
        <ele>200.60000610352</ele>
        <time>2015-08-19T18:11:35.000Z</time>
      </trkpt>
      <trkpt lat="43.64679" lon="1.24088">
        <ele>200.39999389648</ele>
        <time>2015-08-19T18:11:39.000Z</time>
      </trkpt>
      <trkpt lat="43.64685" lon="1.24082">
        <ele>200.19999694824</ele>
        <time>2015-08-19T18:11:44.000Z</time>
      </trkpt>
      <trkpt lat="43.64688" lon="1.24079">
        <ele>200.19999694824</ele>
        <time>2015-08-19T18:11:48.000Z</time>
      </trkpt>
      <trkpt lat="43.64694" lon="1.24073">
        <ele>200</ele>
        <time>2015-08-19T18:11:55.000Z</time>
      </trkpt>
      <trkpt lat="43.64698" lon="1.24065">
        <ele>199.80000305176</ele>
        <time>2015-08-19T18:12:01.000Z</time>
      </trkpt>
      <trkpt lat="43.64706" lon="1.24055">
        <ele>199.60000610352</ele>
        <time>2015-08-19T18:12:11.000Z</time>
      </trkpt>
      <trkpt lat="43.64708" lon="1.24052">
        <ele>199.39999389648</ele>
        <time>2015-08-19T18:12:13.000Z</time>
      </trkpt>
      <trkpt lat="43.64717" lon="1.24045">
        <ele>199.19999694824</ele>
        <time>2015-08-19T18:12:22.000Z</time>
      </trkpt>
      <trkpt lat="43.64722" lon="1.24039">
        <ele>199</ele>
        <time>2015-08-19T18:12:27.000Z</time>
      </trkpt>
      <trkpt lat="43.64726" lon="1.24032">
        <ele>198.80000305176</ele>
        <time>2015-08-19T18:12:32.000Z</time>
      </trkpt>
      <trkpt lat="43.64732" lon="1.24028">
        <ele>198.60000610352</ele>
        <time>2015-08-19T18:12:37.000Z</time>
      </trkpt>
      <trkpt lat="43.64741" lon="1.24016">
        <ele>198.39999389648</ele>
        <time>2015-08-19T18:12:48.000Z</time>
      </trkpt>
      <trkpt lat="43.64746" lon="1.24008">
        <ele>198.39999389648</ele>
        <time>2015-08-19T18:12:56.000Z</time>
      </trkpt>
      <trkpt lat="43.64756" lon="1.23998">
        <ele>198.19999694824</ele>
        <time>2015-08-19T18:13:06.000Z</time>
      </trkpt>
      <trkpt lat="43.64761" lon="1.23996">
        <ele>198.19999694824</ele>
        <time>2015-08-19T18:13:09.000Z</time>
      </trkpt>
      <trkpt lat="43.64767" lon="1.23989">
        <ele>198.19999694824</ele>
        <time>2015-08-19T18:13:15.000Z</time>
      </trkpt>
      <trkpt lat="43.64771" lon="1.23981">
        <ele>198</ele>
        <time>2015-08-19T18:13:20.000Z</time>
      </trkpt>
      <trkpt lat="43.64773" lon="1.23979">
        <ele>198</ele>
        <time>2015-08-19T18:13:22.000Z</time>
      </trkpt>
      <trkpt lat="43.64779" lon="1.23975">
        <ele>197.80000305176</ele>
        <time>2015-08-19T18:13:27.000Z</time>
      </trkpt>
      <trkpt lat="43.64785" lon="1.23968">
        <ele>197.60000610352</ele>
        <time>2015-08-19T18:13:34.000Z</time>
      </trkpt>
      <trkpt lat="43.6479" lon="1.23964">
        <ele>197.60000610352</ele>
        <time>2015-08-19T18:13:38.000Z</time>
      </trkpt>
      <trkpt lat="43.64793" lon="1.23962">
        <ele>197.60000610352</ele>
        <time>2015-08-19T18:13:41.000Z</time>
      </trkpt>
      <trkpt lat="43.64795" lon="1.2396">
        <ele>197.39999389648</ele>
        <time>2015-08-19T18:13:43.000Z</time>
      </trkpt>
      <trkpt lat="43.648" lon="1.23956">
        <ele>197.39999389648</ele>
        <time>2015-08-19T18:13:47.000Z</time>
      </trkpt>
      <trkpt lat="43.64803" lon="1.23953">
        <ele>197.19999694824</ele>
        <time>2015-08-19T18:13:51.000Z</time>
      </trkpt>
      <trkpt lat="43.6481" lon="1.23951">
        <ele>197.19999694824</ele>
        <time>2015-08-19T18:13:55.000Z</time>
      </trkpt>
      <trkpt lat="43.64819" lon="1.23943">
        <ele>197</ele>
        <time>2015-08-19T18:14:02.000Z</time>
      </trkpt>
      <trkpt lat="43.64827" lon="1.23932">
        <ele>197.19999694824</ele>
        <time>2015-08-19T18:14:10.000Z</time>
      </trkpt>
      <trkpt lat="43.6483" lon="1.23927">
        <ele>197.39999389648</ele>
        <time>2015-08-19T18:14:14.000Z</time>
      </trkpt>
      <trkpt lat="43.64836" lon="1.23916">
        <ele>197.60000610352</ele>
        <time>2015-08-19T18:14:21.000Z</time>
      </trkpt>
      <trkpt lat="43.64838" lon="1.23913">
        <ele>197.60000610352</ele>
        <time>2015-08-19T18:14:24.000Z</time>
      </trkpt>
      <trkpt lat="43.64843" lon="1.23908">
        <ele>197.80000305176</ele>
        <time>2015-08-19T18:14:28.000Z</time>
      </trkpt>
      <trkpt lat="43.64848" lon="1.239">
        <ele>197.80000305176</ele>
        <time>2015-08-19T18:14:36.000Z</time>
      </trkpt>
      <trkpt lat="43.64852" lon="1.23896">
        <ele>198</ele>
        <time>2015-08-19T18:14:41.000Z</time>
      </trkpt>
      <trkpt lat="43.64868" lon="1.23882">
        <ele>198</ele>
        <time>2015-08-19T18:14:58.000Z</time>
      </trkpt>
      <trkpt lat="43.64871" lon="1.2388">
        <ele>198</ele>
        <time>2015-08-19T18:15:01.000Z</time>
      </trkpt>
      <trkpt lat="43.64878" lon="1.23873">
        <ele>198</ele>
        <time>2015-08-19T18:15:08.000Z</time>
      </trkpt>
      <trkpt lat="43.6488" lon="1.23872">
        <ele>198</ele>
        <time>2015-08-19T18:15:11.000Z</time>
      </trkpt>
      <trkpt lat="43.64884" lon="1.23864">
        <ele>198</ele>
        <time>2015-08-19T18:15:17.000Z</time>
      </trkpt>
      <trkpt lat="43.64893" lon="1.23858">
        <ele>198</ele>
        <time>2015-08-19T18:15:23.000Z</time>
      </trkpt>
      <trkpt lat="43.64903" lon="1.23853">
        <ele>197.60000610352</ele>
        <time>2015-08-19T18:15:32.000Z</time>
      </trkpt>
      <trkpt lat="43.64909" lon="1.23837">
        <ele>197.60000610352</ele>
        <time>2015-08-19T18:15:45.000Z</time>
      </trkpt>
      <trkpt lat="43.64913" lon="1.23833">
        <ele>197.60000610352</ele>
        <time>2015-08-19T18:15:49.000Z</time>
      </trkpt>
      <trkpt lat="43.64928" lon="1.23822">
        <ele>197.19999694824</ele>
        <time>2015-08-19T18:16:03.000Z</time>
      </trkpt>
      <trkpt lat="43.64928" lon="1.23821">
        <ele>197.19999694824</ele>
        <time>2015-08-19T18:16:04.000Z</time>
      </trkpt>
      <trkpt lat="43.64935" lon="1.23816">
        <ele>197</ele>
        <time>2015-08-19T18:16:10.000Z</time>
      </trkpt>
      <trkpt lat="43.6495" lon="1.23796">
        <ele>197</ele>
        <time>2015-08-19T18:16:25.000Z</time>
      </trkpt>
      <trkpt lat="43.64958" lon="1.23786">
        <ele>197</ele>
        <time>2015-08-19T18:16:35.000Z</time>
      </trkpt>
      <trkpt lat="43.64965" lon="1.23781">
        <ele>197</ele>
        <time>2015-08-19T18:16:41.000Z</time>
      </trkpt>
      <trkpt lat="43.64976" lon="1.23768">
        <ele>197</ele>
        <time>2015-08-19T18:16:57.000Z</time>
      </trkpt>
      <trkpt lat="43.64985" lon="1.23764">
        <ele>197</ele>
        <time>2015-08-19T18:17:04.000Z</time>
      </trkpt>
      <trkpt lat="43.64993" lon="1.23758">
        <ele>197</ele>
        <time>2015-08-19T18:17:11.000Z</time>
      </trkpt>
      <trkpt lat="43.65" lon="1.23753">
        <ele>197</ele>
        <time>2015-08-19T18:17:16.000Z</time>
      </trkpt>
      <trkpt lat="43.65009" lon="1.23746">
        <ele>197</ele>
        <time>2015-08-19T18:17:24.000Z</time>
      </trkpt>
      <trkpt lat="43.65013" lon="1.2374">
        <ele>197</ele>
        <time>2015-08-19T18:17:28.000Z</time>
      </trkpt>
      <trkpt lat="43.65021" lon="1.23723">
        <ele>197</ele>
        <time>2015-08-19T18:17:41.000Z</time>
      </trkpt>
      <trkpt lat="43.65025" lon="1.23719">
        <ele>197</ele>
        <time>2015-08-19T18:17:45.000Z</time>
      </trkpt>
      <trkpt lat="43.65029" lon="1.23711">
        <ele>197</ele>
        <time>2015-08-19T18:17:50.000Z</time>
      </trkpt>
      <trkpt lat="43.65032" lon="1.23708">
        <ele>197</ele>
        <time>2015-08-19T18:17:53.000Z</time>
      </trkpt>
      <trkpt lat="43.65039" lon="1.23698">
        <ele>197</ele>
        <time>2015-08-19T18:18:01.000Z</time>
      </trkpt>
      <trkpt lat="43.65044" lon="1.23693">
        <ele>197</ele>
        <time>2015-08-19T18:18:06.000Z</time>
      </trkpt>
      <trkpt lat="43.65066" lon="1.2367">
        <ele>197.60000610352</ele>
        <time>2015-08-19T18:18:34.000Z</time>
      </trkpt>
      <trkpt lat="43.65082" lon="1.23657">
        <ele>198.19999694824</ele>
        <time>2015-08-19T18:18:53.000Z</time>
      </trkpt>
      <trkpt lat="43.65091" lon="1.23648">
        <ele>198.60000610352</ele>
        <time>2015-08-19T18:19:06.000Z</time>
      </trkpt>
      <trkpt lat="43.65115" lon="1.23623">
        <ele>198.80000305176</ele>
        <time>2015-08-19T18:19:33.000Z</time>
      </trkpt>
      <trkpt lat="43.6513" lon="1.23606">
        <ele>198.60000610352</ele>
        <time>2015-08-19T18:19:49.000Z</time>
      </trkpt>
      <trkpt lat="43.65138" lon="1.23598">
        <ele>198.60000610352</ele>
        <time>2015-08-19T18:19:56.000Z</time>
      </trkpt>
      <trkpt lat="43.65151" lon="1.23585">
        <ele>198.80000305176</ele>
        <time>2015-08-19T18:20:08.000Z</time>
      </trkpt>
      <trkpt lat="43.65158" lon="1.23577">
        <ele>198.80000305176</ele>
        <time>2015-08-19T18:20:16.000Z</time>
      </trkpt>
      <trkpt lat="43.65164" lon="1.23573">
        <ele>198.80000305176</ele>
        <time>2015-08-19T18:20:23.000Z</time>
      </trkpt>
      <trkpt lat="43.65174" lon="1.23565">
        <ele>199</ele>
        <time>2015-08-19T18:20:33.000Z</time>
      </trkpt>
      <trkpt lat="43.65187" lon="1.23554">
        <ele>198.80000305176</ele>
        <time>2015-08-19T18:20:42.000Z</time>
      </trkpt>
      <trkpt lat="43.65192" lon="1.23549">
        <ele>198.39999389648</ele>
        <time>2015-08-19T18:20:47.000Z</time>
      </trkpt>
      <trkpt lat="43.65202" lon="1.23538">
        <ele>197.80000305176</ele>
        <time>2015-08-19T18:20:56.000Z</time>
      </trkpt>
      <trkpt lat="43.65207" lon="1.23532">
        <ele>197.60000610352</ele>
        <time>2015-08-19T18:21:00.000Z</time>
      </trkpt>
      <trkpt lat="43.65235" lon="1.23516">
        <ele>196.39999389648</ele>
        <time>2015-08-19T18:21:17.000Z</time>
      </trkpt>
      <trkpt lat="43.65238" lon="1.23513">
        <ele>196.39999389648</ele>
        <time>2015-08-19T18:21:20.000Z</time>
      </trkpt>
      <trkpt lat="43.65249" lon="1.23501">
        <ele>196.19999694824</ele>
        <time>2015-08-19T18:21:29.000Z</time>
      </trkpt>
      <trkpt lat="43.65266" lon="1.23487">
        <ele>196</ele>
        <time>2015-08-19T18:21:45.000Z</time>
      </trkpt>
      <trkpt lat="43.65279" lon="1.23472">
        <ele>196</ele>
        <time>2015-08-19T18:21:59.000Z</time>
      </trkpt>
      <trkpt lat="43.65294" lon="1.23456">
        <ele>195.80000305176</ele>
        <time>2015-08-19T18:22:13.000Z</time>
      </trkpt>
      <trkpt lat="43.65297" lon="1.23453">
        <ele>195.80000305176</ele>
        <time>2015-08-19T18:22:16.000Z</time>
      </trkpt>
      <trkpt lat="43.6531" lon="1.23437">
        <ele>195.39999389648</ele>
        <time>2015-08-19T18:22:30.000Z</time>
      </trkpt>
      <trkpt lat="43.65313" lon="1.23433">
        <ele>195.39999389648</ele>
        <time>2015-08-19T18:22:34.000Z</time>
      </trkpt>
      <trkpt lat="43.65319" lon="1.23424">
        <ele>195.39999389648</ele>
        <time>2015-08-19T18:22:41.000Z</time>
      </trkpt>
      <trkpt lat="43.65321" lon="1.23422">
        <ele>195.39999389648</ele>
        <time>2015-08-19T18:22:43.000Z</time>
      </trkpt>
      <trkpt lat="43.65325" lon="1.23416">
        <ele>195.60000610352</ele>
        <time>2015-08-19T18:22:48.000Z</time>
      </trkpt>
      <trkpt lat="43.6533" lon="1.23408">
        <ele>195.39999389648</ele>
        <time>2015-08-19T18:22:54.000Z</time>
      </trkpt>
      <trkpt lat="43.65347" lon="1.23398">
        <ele>195.80000305176</ele>
        <time>2015-08-19T18:23:09.000Z</time>
      </trkpt>
      <trkpt lat="43.65353" lon="1.23391">
        <ele>196</ele>
        <time>2015-08-19T18:23:17.000Z</time>
      </trkpt>
      <trkpt lat="43.65367" lon="1.23374">
        <ele>196</ele>
        <time>2015-08-19T18:23:31.000Z</time>
      </trkpt>
      <trkpt lat="43.65373" lon="1.23364">
        <ele>196</ele>
        <time>2015-08-19T18:23:39.000Z</time>
      </trkpt>
      <trkpt lat="43.65376" lon="1.23359">
        <ele>196</ele>
        <time>2015-08-19T18:23:43.000Z</time>
      </trkpt>
      <trkpt lat="43.65383" lon="1.23352">
        <ele>196</ele>
        <time>2015-08-19T18:23:50.000Z</time>
      </trkpt>
      <trkpt lat="43.65387" lon="1.23348">
        <ele>196</ele>
        <time>2015-08-19T18:23:55.000Z</time>
      </trkpt>
      <trkpt lat="43.65391" lon="1.23342">
        <ele>196</ele>
        <time>2015-08-19T18:24:00.000Z</time>
      </trkpt>
      <trkpt lat="43.65392" lon="1.2334">
        <ele>195.80000305176</ele>
        <time>2015-08-19T18:24:02.000Z</time>
      </trkpt>
      <trkpt lat="43.65398" lon="1.2333">
        <ele>195.60000610352</ele>
        <time>2015-08-19T18:24:07.000Z</time>
      </trkpt>
      <trkpt lat="43.65414" lon="1.23312">
        <ele>195.19999694824</ele>
        <time>2015-08-19T18:24:20.000Z</time>
      </trkpt>
      <trkpt lat="43.65429" lon="1.23296">
        <ele>195</ele>
        <time>2015-08-19T18:24:35.000Z</time>
      </trkpt>
      <trkpt lat="43.65442" lon="1.23286">
        <ele>195.19999694824</ele>
        <time>2015-08-19T18:24:45.000Z</time>
      </trkpt>
      <trkpt lat="43.65448" lon="1.23279">
        <ele>195.19999694824</ele>
        <time>2015-08-19T18:24:51.000Z</time>
      </trkpt>
      <trkpt lat="43.6545" lon="1.23277">
        <ele>195.39999389648</ele>
        <time>2015-08-19T18:24:53.000Z</time>
      </trkpt>
      <trkpt lat="43.65452" lon="1.23275">
        <ele>195.39999389648</ele>
        <time>2015-08-19T18:24:55.000Z</time>
      </trkpt>
      <trkpt lat="43.65455" lon="1.23272">
        <ele>195.39999389648</ele>
        <time>2015-08-19T18:24:58.000Z</time>
      </trkpt>
      <trkpt lat="43.65463" lon="1.23267">
        <ele>195.60000610352</ele>
        <time>2015-08-19T18:25:11.000Z</time>
      </trkpt>
      <trkpt lat="43.65479" lon="1.2325">
        <ele>196.19999694824</ele>
        <time>2015-08-19T18:26:56.000Z</time>
      </trkpt>
      <trkpt lat="43.65489" lon="1.2324">
        <ele>196.80000305176</ele>
        <time>2015-08-19T18:27:04.000Z</time>
      </trkpt>
      <trkpt lat="43.65498" lon="1.23229">
        <ele>197.19999694824</ele>
        <time>2015-08-19T18:27:13.000Z</time>
      </trkpt>
      <trkpt lat="43.65515" lon="1.23215">
        <ele>197.80000305176</ele>
        <time>2015-08-19T18:27:27.000Z</time>
      </trkpt>
      <trkpt lat="43.65517" lon="1.23213">
        <ele>197.80000305176</ele>
        <time>2015-08-19T18:27:29.000Z</time>
      </trkpt>
      <trkpt lat="43.65537" lon="1.23198">
        <ele>197.60000610352</ele>
        <time>2015-08-19T18:27:47.000Z</time>
      </trkpt>
      <trkpt lat="43.65538" lon="1.23197">
        <ele>197.60000610352</ele>
        <time>2015-08-19T18:27:48.000Z</time>
      </trkpt>
      <trkpt lat="43.65556" lon="1.23178">
        <ele>197.39999389648</ele>
        <time>2015-08-19T18:28:06.000Z</time>
      </trkpt>
      <trkpt lat="43.65569" lon="1.2316">
        <ele>197.19999694824</ele>
        <time>2015-08-19T18:28:21.000Z</time>
      </trkpt>
      <trkpt lat="43.65582" lon="1.23147">
        <ele>197</ele>
        <time>2015-08-19T18:28:34.000Z</time>
      </trkpt>
      <trkpt lat="43.65595" lon="1.23135">
        <ele>197</ele>
        <time>2015-08-19T18:28:47.000Z</time>
      </trkpt>
      <trkpt lat="43.65604" lon="1.23121">
        <ele>196.80000305176</ele>
        <time>2015-08-19T18:29:00.000Z</time>
      </trkpt>
      <trkpt lat="43.65618" lon="1.23104">
        <ele>196.80000305176</ele>
        <time>2015-08-19T18:29:13.000Z</time>
      </trkpt>
      <trkpt lat="43.65632" lon="1.23085">
        <ele>197</ele>
        <time>2015-08-19T18:29:26.000Z</time>
      </trkpt>
      <trkpt lat="43.65636" lon="1.23073">
        <ele>196.60000610352</ele>
        <time>2015-08-19T18:29:33.000Z</time>
      </trkpt>
      <trkpt lat="43.65638" lon="1.23069">
        <ele>196.60000610352</ele>
        <time>2015-08-19T18:29:36.000Z</time>
      </trkpt>
      <trkpt lat="43.65645" lon="1.23046">
        <ele>196.60000610352</ele>
        <time>2015-08-19T18:29:48.000Z</time>
      </trkpt>
      <trkpt lat="43.6565" lon="1.23039">
        <ele>196.60000610352</ele>
        <time>2015-08-19T18:29:56.000Z</time>
      </trkpt>
      <trkpt lat="43.65651" lon="1.23034">
        <ele>196.60000610352</ele>
        <time>2015-08-19T18:29:59.000Z</time>
      </trkpt>
      <trkpt lat="43.65655" lon="1.23031">
        <ele>196.60000610352</ele>
        <time>2015-08-19T18:30:03.000Z</time>
      </trkpt>
      <trkpt lat="43.6566" lon="1.23023">
        <ele>196.39999389648</ele>
        <time>2015-08-19T18:30:10.000Z</time>
      </trkpt>
      <trkpt lat="43.65666" lon="1.23002">
        <ele>195.80000305176</ele>
        <time>2015-08-19T18:30:20.000Z</time>
      </trkpt>
      <trkpt lat="43.65668" lon="1.22994">
        <ele>195.60000610352</ele>
        <time>2015-08-19T18:30:25.000Z</time>
      </trkpt>
      <trkpt lat="43.6567" lon="1.2299">
        <ele>195.39999389648</ele>
        <time>2015-08-19T18:30:28.000Z</time>
      </trkpt>
      <trkpt lat="43.65671" lon="1.22983">
        <ele>195.19999694824</ele>
        <time>2015-08-19T18:30:33.000Z</time>
      </trkpt>
      <trkpt lat="43.65673" lon="1.22978">
        <ele>195.19999694824</ele>
        <time>2015-08-19T18:30:36.000Z</time>
      </trkpt>
      <trkpt lat="43.6567" lon="1.22969">
        <ele>195</ele>
        <time>2015-08-19T18:30:42.000Z</time>
      </trkpt>
      <trkpt lat="43.65666" lon="1.22937">
        <ele>195</ele>
        <time>2015-08-19T18:30:57.000Z</time>
      </trkpt>
      <trkpt lat="43.6567" lon="1.22914">
        <ele>195</ele>
        <time>2015-08-19T18:31:08.000Z</time>
      </trkpt>
      <trkpt lat="43.65693" lon="1.22906">
        <ele>195</ele>
        <time>2015-08-19T18:31:24.000Z</time>
      </trkpt>
      <trkpt lat="43.65697" lon="1.22902">
        <ele>195</ele>
        <time>2015-08-19T18:31:28.000Z</time>
      </trkpt>
      <trkpt lat="43.657" lon="1.22897">
        <ele>195</ele>
        <time>2015-08-19T18:31:33.000Z</time>
      </trkpt>
      <trkpt lat="43.65702" lon="1.22891">
        <ele>194.80000305176</ele>
        <time>2015-08-19T18:31:37.000Z</time>
      </trkpt>
      <trkpt lat="43.65705" lon="1.22889">
        <ele>194.80000305176</ele>
        <time>2015-08-19T18:31:39.000Z</time>
      </trkpt>
      <trkpt lat="43.65715" lon="1.22887">
        <ele>194.60000610352</ele>
        <time>2015-08-19T18:31:45.000Z</time>
      </trkpt>
      <trkpt lat="43.65729" lon="1.22889">
        <ele>194.60000610352</ele>
        <time>2015-08-19T18:31:54.000Z</time>
      </trkpt>
      <trkpt lat="43.65733" lon="1.22889">
        <ele>194.80000305176</ele>
        <time>2015-08-19T18:31:57.000Z</time>
      </trkpt>
      <trkpt lat="43.65739" lon="1.22888">
        <ele>194.60000610352</ele>
        <time>2015-08-19T18:32:03.000Z</time>
      </trkpt>
      <trkpt lat="43.65755" lon="1.22886">
        <ele>194.60000610352</ele>
        <time>2015-08-19T18:32:15.000Z</time>
      </trkpt>
      <trkpt lat="43.65774" lon="1.22865">
        <ele>194.60000610352</ele>
        <time>2015-08-19T18:32:31.000Z</time>
      </trkpt>
      <trkpt lat="43.6578" lon="1.22859">
        <ele>194.39999389648</ele>
        <time>2015-08-19T18:32:36.000Z</time>
      </trkpt>
      <trkpt lat="43.65781" lon="1.22858">
        <ele>194.19999694824</ele>
        <time>2015-08-19T18:32:38.000Z</time>
      </trkpt>
      <trkpt lat="43.65794" lon="1.22849">
        <ele>193.80000305176</ele>
        <time>2015-08-19T18:32:48.000Z</time>
      </trkpt>
      <trkpt lat="43.65797" lon="1.2285">
        <ele>193.80000305176</ele>
        <time>2015-08-19T18:32:50.000Z</time>
      </trkpt>
      <trkpt lat="43.65801" lon="1.22848">
        <ele>193.60000610352</ele>
        <time>2015-08-19T18:32:53.000Z</time>
      </trkpt>
      <trkpt lat="43.65808" lon="1.22849">
        <ele>193.60000610352</ele>
        <time>2015-08-19T18:32:58.000Z</time>
      </trkpt>
      <trkpt lat="43.65819" lon="1.22852">
        <ele>193.39999389648</ele>
        <time>2015-08-19T18:33:07.000Z</time>
      </trkpt>
      <trkpt lat="43.65824" lon="1.22853">
        <ele>193.39999389648</ele>
        <time>2015-08-19T18:33:11.000Z</time>
      </trkpt>
      <trkpt lat="43.65835" lon="1.22857">
        <ele>193.19999694824</ele>
        <time>2015-08-19T18:33:20.000Z</time>
      </trkpt>
      <trkpt lat="43.6584" lon="1.22857">
        <ele>193.19999694824</ele>
        <time>2015-08-19T18:33:24.000Z</time>
      </trkpt>
      <trkpt lat="43.65846" lon="1.22856">
        <ele>193</ele>
        <time>2015-08-19T18:33:28.000Z</time>
      </trkpt>
      <trkpt lat="43.65852" lon="1.22856">
        <ele>193</ele>
        <time>2015-08-19T18:33:33.000Z</time>
      </trkpt>
      <trkpt lat="43.65866" lon="1.22851">
        <ele>193.39999389648</ele>
        <time>2015-08-19T18:33:46.000Z</time>
      </trkpt>
      <trkpt lat="43.65871" lon="1.22851">
        <ele>193.60000610352</ele>
        <time>2015-08-19T18:33:50.000Z</time>
      </trkpt>
      <trkpt lat="43.65888" lon="1.22852">
        <ele>194.19999694824</ele>
        <time>2015-08-19T18:34:05.000Z</time>
      </trkpt>
      <trkpt lat="43.6589" lon="1.22852">
        <ele>194.39999389648</ele>
        <time>2015-08-19T18:34:07.000Z</time>
      </trkpt>
      <trkpt lat="43.65895" lon="1.22852">
        <ele>194.60000610352</ele>
        <time>2015-08-19T18:34:12.000Z</time>
      </trkpt>
      <trkpt lat="43.65899" lon="1.22851">
        <ele>194.60000610352</ele>
        <time>2015-08-19T18:34:16.000Z</time>
      </trkpt>
      <trkpt lat="43.65905" lon="1.22846">
        <ele>194.80000305176</ele>
        <time>2015-08-19T18:34:22.000Z</time>
      </trkpt>
      <trkpt lat="43.65918" lon="1.22848">
        <ele>195.39999389648</ele>
        <time>2015-08-19T18:34:34.000Z</time>
      </trkpt>
      <trkpt lat="43.65928" lon="1.22843">
        <ele>195.80000305176</ele>
        <time>2015-08-19T18:34:43.000Z</time>
      </trkpt>
      <trkpt lat="43.65936" lon="1.2284">
        <ele>196</ele>
        <time>2015-08-19T18:34:52.000Z</time>
      </trkpt>
      <trkpt lat="43.65955" lon="1.22835">
        <ele>195.80000305176</ele>
        <time>2015-08-19T18:35:06.000Z</time>
      </trkpt>
      <trkpt lat="43.65961" lon="1.22834">
        <ele>195.80000305176</ele>
        <time>2015-08-19T18:35:10.000Z</time>
      </trkpt>
      <trkpt lat="43.65973" lon="1.22832">
        <ele>195.80000305176</ele>
        <time>2015-08-19T18:35:19.000Z</time>
      </trkpt>
      <trkpt lat="43.65976" lon="1.22832">
        <ele>195.80000305176</ele>
        <time>2015-08-19T18:35:21.000Z</time>
      </trkpt>
      <trkpt lat="43.65983" lon="1.22832">
        <ele>195.80000305176</ele>
        <time>2015-08-19T18:35:26.000Z</time>
      </trkpt>
      <trkpt lat="43.6599" lon="1.22833">
        <ele>195.80000305176</ele>
        <time>2015-08-19T18:35:31.000Z</time>
      </trkpt>
      <trkpt lat="43.66002" lon="1.22835">
        <ele>195.80000305176</ele>
        <time>2015-08-19T18:35:40.000Z</time>
      </trkpt>
      <trkpt lat="43.66006" lon="1.22837">
        <ele>195.80000305176</ele>
        <time>2015-08-19T18:35:43.000Z</time>
      </trkpt>
      <trkpt lat="43.6601" lon="1.22837">
        <ele>195.80000305176</ele>
        <time>2015-08-19T18:35:46.000Z</time>
      </trkpt>
      <trkpt lat="43.66023" lon="1.22838">
        <ele>195.60000610352</ele>
        <time>2015-08-19T18:35:57.000Z</time>
      </trkpt>
      <trkpt lat="43.66032" lon="1.22855">
        <ele>195.39999389648</ele>
        <time>2015-08-19T18:36:11.000Z</time>
      </trkpt>
      <trkpt lat="43.6604" lon="1.22864">
        <ele>195.39999389648</ele>
        <time>2015-08-19T18:36:19.000Z</time>
      </trkpt>
      <trkpt lat="43.66047" lon="1.22866">
        <ele>195.39999389648</ele>
        <time>2015-08-19T18:36:23.000Z</time>
      </trkpt>
      <trkpt lat="43.66067" lon="1.22881">
        <ele>195.19999694824</ele>
        <time>2015-08-19T18:36:40.000Z</time>
      </trkpt>
      <trkpt lat="43.66072" lon="1.22886">
        <ele>195.19999694824</ele>
        <time>2015-08-19T18:36:44.000Z</time>
      </trkpt>
      <trkpt lat="43.6608" lon="1.22894">
        <ele>195</ele>
        <time>2015-08-19T18:36:52.000Z</time>
      </trkpt>
      <trkpt lat="43.66089" lon="1.22905">
        <ele>195</ele>
        <time>2015-08-19T18:37:01.000Z</time>
      </trkpt>
      <trkpt lat="43.66097" lon="1.2292">
        <ele>195</ele>
        <time>2015-08-19T18:37:14.000Z</time>
      </trkpt>
      <trkpt lat="43.661" lon="1.22924">
        <ele>195</ele>
        <time>2015-08-19T18:37:18.000Z</time>
      </trkpt>
      <trkpt lat="43.66103" lon="1.2293">
        <ele>195</ele>
        <time>2015-08-19T18:37:22.000Z</time>
      </trkpt>
      <trkpt lat="43.66109" lon="1.22943">
        <ele>195</ele>
        <time>2015-08-19T18:37:31.000Z</time>
      </trkpt>
      <trkpt lat="43.66117" lon="1.22971">
        <ele>194.80000305176</ele>
        <time>2015-08-19T18:37:47.000Z</time>
      </trkpt>
      <trkpt lat="43.66119" lon="1.22982">
        <ele>194.80000305176</ele>
        <time>2015-08-19T18:37:51.000Z</time>
      </trkpt>
      <trkpt lat="43.6612" lon="1.2299">
        <ele>194.80000305176</ele>
        <time>2015-08-19T18:37:55.000Z</time>
      </trkpt>
      <trkpt lat="43.66123" lon="1.22997">
        <ele>194.80000305176</ele>
        <time>2015-08-19T18:38:00.000Z</time>
      </trkpt>
      <trkpt lat="43.66127" lon="1.22997">
        <ele>194.80000305176</ele>
        <time>2015-08-19T18:38:03.000Z</time>
      </trkpt>
      <trkpt lat="43.66149" lon="1.22998">
        <ele>194.39999389648</ele>
        <time>2015-08-19T18:38:19.000Z</time>
      </trkpt>
      <trkpt lat="43.66152" lon="1.22996">
        <ele>194.39999389648</ele>
        <time>2015-08-19T18:38:22.000Z</time>
      </trkpt>
      <trkpt lat="43.66157" lon="1.22993">
        <ele>194.39999389648</ele>
        <time>2015-08-19T18:38:27.000Z</time>
      </trkpt>
      <trkpt lat="43.66163" lon="1.22989">
        <ele>194.19999694824</ele>
        <time>2015-08-19T18:38:32.000Z</time>
      </trkpt>
      <trkpt lat="43.66164" lon="1.22982">
        <ele>194.19999694824</ele>
        <time>2015-08-19T18:38:37.000Z</time>
      </trkpt>
      <trkpt lat="43.66171" lon="1.22963">
        <ele>194.19999694824</ele>
        <time>2015-08-19T18:38:48.000Z</time>
      </trkpt>
      <trkpt lat="43.66176" lon="1.22956">
        <ele>194.19999694824</ele>
        <time>2015-08-19T18:38:53.000Z</time>
      </trkpt>
      <trkpt lat="43.66188" lon="1.22948">
        <ele>194</ele>
        <time>2015-08-19T18:39:04.000Z</time>
      </trkpt>
      <trkpt lat="43.66215" lon="1.22945">
        <ele>194.39999389648</ele>
        <time>2015-08-19T18:39:23.000Z</time>
      </trkpt>
      <trkpt lat="43.66245" lon="1.22954">
        <ele>194.60000610352</ele>
        <time>2015-08-19T18:39:49.000Z</time>
      </trkpt>
      <trkpt lat="43.6625" lon="1.22956">
        <ele>194.80000305176</ele>
        <time>2015-08-19T18:39:53.000Z</time>
      </trkpt>
      <trkpt lat="43.66257" lon="1.22958">
        <ele>194.80000305176</ele>
        <time>2015-08-19T18:39:59.000Z</time>
      </trkpt>
      <trkpt lat="43.66261" lon="1.22959">
        <ele>194.80000305176</ele>
        <time>2015-08-19T18:40:02.000Z</time>
      </trkpt>
      <trkpt lat="43.66278" lon="1.22964">
        <ele>194.80000305176</ele>
        <time>2015-08-19T18:40:14.000Z</time>
      </trkpt>
      <trkpt lat="43.66283" lon="1.22971">
        <ele>194.80000305176</ele>
        <time>2015-08-19T18:40:19.000Z</time>
      </trkpt>
      <trkpt lat="43.66288" lon="1.22977">
        <ele>194.80000305176</ele>
        <time>2015-08-19T18:40:24.000Z</time>
      </trkpt>
      <trkpt lat="43.66303" lon="1.22983">
        <ele>194.60000610352</ele>
        <time>2015-08-19T18:40:36.000Z</time>
      </trkpt>
      <trkpt lat="43.66312" lon="1.22982">
        <ele>194.39999389648</ele>
        <time>2015-08-19T18:40:43.000Z</time>
      </trkpt>
      <trkpt lat="43.66321" lon="1.22982">
        <ele>194.39999389648</ele>
        <time>2015-08-19T18:40:50.000Z</time>
      </trkpt>
      <trkpt lat="43.66333" lon="1.22982">
        <ele>194.19999694824</ele>
        <time>2015-08-19T18:41:01.000Z</time>
      </trkpt>
      <trkpt lat="43.66338" lon="1.22981">
        <ele>194.19999694824</ele>
        <time>2015-08-19T18:41:05.000Z</time>
      </trkpt>
      <trkpt lat="43.66345" lon="1.2298">
        <ele>194</ele>
        <time>2015-08-19T18:41:10.000Z</time>
      </trkpt>
      <trkpt lat="43.66352" lon="1.22977">
        <ele>194</ele>
        <time>2015-08-19T18:41:16.000Z</time>
      </trkpt>
      <trkpt lat="43.66354" lon="1.22974">
        <ele>194.19999694824</ele>
        <time>2015-08-19T18:41:19.000Z</time>
      </trkpt>
      <trkpt lat="43.66358" lon="1.22971">
        <ele>194.19999694824</ele>
        <time>2015-08-19T18:41:25.000Z</time>
      </trkpt>
      <trkpt lat="43.66366" lon="1.22963">
        <ele>194.60000610352</ele>
        <time>2015-08-19T18:41:32.000Z</time>
      </trkpt>
      <trkpt lat="43.66379" lon="1.22948">
        <ele>195</ele>
        <time>2015-08-19T18:41:45.000Z</time>
      </trkpt>
      <trkpt lat="43.66383" lon="1.22941">
        <ele>195.19999694824</ele>
        <time>2015-08-19T18:41:50.000Z</time>
      </trkpt>
      <trkpt lat="43.66385" lon="1.22937">
        <ele>195.39999389648</ele>
        <time>2015-08-19T18:41:53.000Z</time>
      </trkpt>
      <trkpt lat="43.6639" lon="1.22928">
        <ele>195.60000610352</ele>
        <time>2015-08-19T18:42:00.000Z</time>
      </trkpt>
      <trkpt lat="43.66392" lon="1.22918">
        <ele>195.80000305176</ele>
        <time>2015-08-19T18:42:07.000Z</time>
      </trkpt>
      <trkpt lat="43.66394" lon="1.22906">
        <ele>195.80000305176</ele>
        <time>2015-08-19T18:42:13.000Z</time>
      </trkpt>
      <trkpt lat="43.66396" lon="1.22898">
        <ele>196</ele>
        <time>2015-08-19T18:42:17.000Z</time>
      </trkpt>
      <trkpt lat="43.66407" lon="1.22878">
        <ele>195.60000610352</ele>
        <time>2015-08-19T18:42:29.000Z</time>
      </trkpt>
      <trkpt lat="43.66412" lon="1.22853">
        <ele>195.19999694824</ele>
        <time>2015-08-19T18:42:43.000Z</time>
      </trkpt>
      <trkpt lat="43.66421" lon="1.22828">
        <ele>195</ele>
        <time>2015-08-19T18:42:58.000Z</time>
      </trkpt>
      <trkpt lat="43.66423" lon="1.22824">
        <ele>195</ele>
        <time>2015-08-19T18:43:00.000Z</time>
      </trkpt>
      <trkpt lat="43.66425" lon="1.22819">
        <ele>195</ele>
        <time>2015-08-19T18:43:03.000Z</time>
      </trkpt>
      <trkpt lat="43.66427" lon="1.22818">
        <ele>195</ele>
        <time>2015-08-19T18:43:05.000Z</time>
      </trkpt>
      <trkpt lat="43.66431" lon="1.22809">
        <ele>194.80000305176</ele>
        <time>2015-08-19T18:43:11.000Z</time>
      </trkpt>
      <trkpt lat="43.66431" lon="1.22804">
        <ele>194.80000305176</ele>
        <time>2015-08-19T18:43:14.000Z</time>
      </trkpt>
      <trkpt lat="43.66433" lon="1.22798">
        <ele>194.80000305176</ele>
        <time>2015-08-19T18:43:18.000Z</time>
      </trkpt>
      <trkpt lat="43.66432" lon="1.22778">
        <ele>194.39999389648</ele>
        <time>2015-08-19T18:43:30.000Z</time>
      </trkpt>
      <trkpt lat="43.66431" lon="1.22768">
        <ele>194.39999389648</ele>
        <time>2015-08-19T18:43:37.000Z</time>
      </trkpt>
      <trkpt lat="43.66437" lon="1.22748">
        <ele>194.19999694824</ele>
        <time>2015-08-19T18:43:49.000Z</time>
      </trkpt>
      <trkpt lat="43.6644" lon="1.22728">
        <ele>193.80000305176</ele>
        <time>2015-08-19T18:44:00.000Z</time>
      </trkpt>
      <trkpt lat="43.66445" lon="1.22726">
        <ele>193.60000610352</ele>
        <time>2015-08-19T18:44:05.000Z</time>
      </trkpt>
      <trkpt lat="43.66449" lon="1.22725">
        <ele>193.39999389648</ele>
        <time>2015-08-19T18:44:08.000Z</time>
      </trkpt>
      <trkpt lat="43.66453" lon="1.22724">
        <ele>193.39999389648</ele>
        <time>2015-08-19T18:44:12.000Z</time>
      </trkpt>
      <trkpt lat="43.66473" lon="1.22722">
        <ele>192.60000610352</ele>
        <time>2015-08-19T18:44:28.000Z</time>
      </trkpt>
      <trkpt lat="43.66474" lon="1.22722">
        <ele>192.60000610352</ele>
        <time>2015-08-19T18:44:29.000Z</time>
      </trkpt>
      <trkpt lat="43.6648" lon="1.22719">
        <ele>192.39999389648</ele>
        <time>2015-08-19T18:44:35.000Z</time>
      </trkpt>
      <trkpt lat="43.66483" lon="1.22717">
        <ele>192.19999694824</ele>
        <time>2015-08-19T18:44:38.000Z</time>
      </trkpt>
      <trkpt lat="43.66491" lon="1.22713">
        <ele>191.80000305176</ele>
        <time>2015-08-19T18:44:44.000Z</time>
      </trkpt>
      <trkpt lat="43.66492" lon="1.22712">
        <ele>191.60000610352</ele>
        <time>2015-08-19T18:44:46.000Z</time>
      </trkpt>
      <trkpt lat="43.66497" lon="1.22712">
        <ele>191.60000610352</ele>
        <time>2015-08-19T18:44:50.000Z</time>
      </trkpt>
      <trkpt lat="43.66504" lon="1.22712">
        <ele>191.39999389648</ele>
        <time>2015-08-19T18:44:55.000Z</time>
      </trkpt>
      <trkpt lat="43.66509" lon="1.22709">
        <ele>191</ele>
        <time>2015-08-19T18:45:00.000Z</time>
      </trkpt>
      <trkpt lat="43.66516" lon="1.22699">
        <ele>190.19999694824</ele>
        <time>2015-08-19T18:45:07.000Z</time>
      </trkpt>
      <trkpt lat="43.66524" lon="1.2269">
        <ele>189.80000305176</ele>
        <time>2015-08-19T18:45:15.000Z</time>
      </trkpt>
      <trkpt lat="43.66542" lon="1.22679">
        <ele>189.80000305176</ele>
        <time>2015-08-19T18:45:30.000Z</time>
      </trkpt>
      <trkpt lat="43.66546" lon="1.22676">
        <ele>189.80000305176</ele>
        <time>2015-08-19T18:45:33.000Z</time>
      </trkpt>
      <trkpt lat="43.66549" lon="1.22673">
        <ele>189.80000305176</ele>
        <time>2015-08-19T18:45:37.000Z</time>
      </trkpt>
      <trkpt lat="43.66554" lon="1.22672">
        <ele>189.80000305176</ele>
        <time>2015-08-19T18:45:41.000Z</time>
      </trkpt>
      <trkpt lat="43.66567" lon="1.22667">
        <ele>190</ele>
        <time>2015-08-19T18:45:51.000Z</time>
      </trkpt>
      <trkpt lat="43.66572" lon="1.22663">
        <ele>190</ele>
        <time>2015-08-19T18:45:57.000Z</time>
      </trkpt>
      <trkpt lat="43.66574" lon="1.22662">
        <ele>190</ele>
        <time>2015-08-19T18:45:59.000Z</time>
      </trkpt>
      <trkpt lat="43.66579" lon="1.22659">
        <ele>190</ele>
        <time>2015-08-19T18:46:03.000Z</time>
      </trkpt>
      <trkpt lat="43.66581" lon="1.2266">
        <ele>190</ele>
        <time>2015-08-19T18:46:05.000Z</time>
      </trkpt>
      <trkpt lat="43.66584" lon="1.22659">
        <ele>190.19999694824</ele>
        <time>2015-08-19T18:46:13.000Z</time>
      </trkpt>
    </trkseg>
  </trk>
</gpx>